<?xml version="1.0" encoding="utf-8"?>
<gpx xmlns:xsi="http://www.w3.org/2001/XMLSchema-instance" xmlns:xsd="http://www.w3.org/2001/XMLSchema" xsi:schemaLocation="http://www.topografix.com/GPX/1/0 http://www.topografix.com/GPX/1/0/gpx.xsd" version="1.0" creator="Touratech-QV 5.0.7.8" xmlns="http://www.topografix.com/GPX/1/0">
  <name>ttqv5</name>
  <trk>
    <name>BUX-HESLI-SITTENS-UNDEL-BUX</name>
    <trkseg>
      <trkpt lat="53.4575519683551" lon="9.6701149809639">
        <ele>29</ele>
        <time>2011-08-21T12:26:40</time>
      </trkpt>
      <trkpt lat="53.455237" lon="9.667860021">
        <ele>16</ele>
        <time>2011-08-21T12:26:52</time>
      </trkpt>
      <trkpt lat="53.453438" lon="9.665983021">
        <ele>8</ele>
        <time>2011-08-21T12:27:04</time>
      </trkpt>
      <trkpt lat="53.452398248206" lon="9.66517424057449">
        <ele>12</ele>
        <time>2011-08-21T12:27:17</time>
      </trkpt>
      <trkpt lat="53.4517248362147" lon="9.66473918177754">
        <ele>13</ele>
        <time>2011-08-21T12:27:28</time>
      </trkpt>
      <trkpt lat="53.4510091764664" lon="9.66432699722125">
        <ele>16</ele>
        <time>2011-08-21T12:32:15</time>
      </trkpt>
      <trkpt lat="53.4501499815589" lon="9.66438444123257">
        <ele>11</ele>
        <time>2011-08-21T12:32:27</time>
      </trkpt>
      <trkpt lat="53.4495827971899" lon="9.66510673191039">
        <ele>11</ele>
        <time>2011-08-21T12:32:39</time>
      </trkpt>
      <trkpt lat="53.4487629177699" lon="9.66573039000391">
        <ele>7</ele>
        <time>2011-08-21T12:32:50</time>
      </trkpt>
      <trkpt lat="53.448239330919" lon="9.66621755292594">
        <ele>11</ele>
        <time>2011-08-21T12:33:01</time>
      </trkpt>
      <trkpt lat="53.447838" lon="9.666552021">
        <ele>14</ele>
        <time>2011-08-21T12:33:12</time>
      </trkpt>
      <trkpt lat="53.44627" lon="9.666737021">
        <ele>20</ele>
        <time>2011-08-21T12:33:25</time>
      </trkpt>
      <trkpt lat="53.443795" lon="9.665608021">
        <ele>20</ele>
        <time>2011-08-21T12:33:37</time>
      </trkpt>
      <trkpt lat="53.441205" lon="9.664422021">
        <ele>23</ele>
        <time>2011-08-21T12:33:49</time>
      </trkpt>
      <trkpt lat="53.439813" lon="9.661390021">
        <ele>28</ele>
        <time>2011-08-21T12:34:00</time>
      </trkpt>
      <trkpt lat="53.438297" lon="9.657592021">
        <ele>20</ele>
        <time>2011-08-21T12:34:12</time>
      </trkpt>
      <trkpt lat="53.435828" lon="9.656928021">
        <ele>22</ele>
        <time>2011-08-21T12:34:24</time>
      </trkpt>
      <trkpt lat="53.433143" lon="9.656622021">
        <ele>22</ele>
        <time>2011-08-21T12:34:37</time>
      </trkpt>
      <trkpt lat="53.430803" lon="9.656255021">
        <ele>20</ele>
        <time>2011-08-21T12:34:48</time>
      </trkpt>
      <trkpt lat="53.428298" lon="9.655855021">
        <ele>24</ele>
        <time>2011-08-21T12:35:00</time>
      </trkpt>
      <trkpt lat="53.425917" lon="9.655470021">
        <ele>29</ele>
        <time>2011-08-21T12:35:12</time>
      </trkpt>
      <trkpt lat="53.422877" lon="9.654977021">
        <ele>30</ele>
        <time>2011-08-21T12:35:24</time>
      </trkpt>
      <trkpt lat="53.420425" lon="9.654570021">
        <ele>26</ele>
        <time>2011-08-21T12:35:35</time>
      </trkpt>
      <trkpt lat="53.418617" lon="9.654270021">
        <ele>24</ele>
        <time>2011-08-21T12:35:47</time>
      </trkpt>
      <trkpt lat="53.417072" lon="9.653820021">
        <ele>21</ele>
        <time>2011-08-21T12:35:58</time>
      </trkpt>
      <trkpt lat="53.416122" lon="9.653038021">
        <ele>18</ele>
        <time>2011-08-21T12:36:10</time>
      </trkpt>
      <trkpt lat="53.415097" lon="9.652390021">
        <ele>21</ele>
        <time>2011-08-21T12:36:22</time>
      </trkpt>
      <trkpt lat="53.413957" lon="9.651985021">
        <ele>21</ele>
        <time>2011-08-21T12:36:34</time>
      </trkpt>
      <trkpt lat="53.413832" lon="9.649227021">
        <ele>26</ele>
        <time>2011-08-21T12:36:45</time>
      </trkpt>
      <trkpt lat="53.413937" lon="9.644707021">
        <ele>30</ele>
        <time>2011-08-21T12:36:57</time>
      </trkpt>
      <trkpt lat="53.413623" lon="9.640368021">
        <ele>31</ele>
        <time>2011-08-21T12:37:10</time>
      </trkpt>
      <trkpt lat="53.413113" lon="9.637163021">
        <ele>31</ele>
        <time>2011-08-21T12:37:22</time>
      </trkpt>
      <trkpt lat="53.41119" lon="9.636608021">
        <ele>25</ele>
        <time>2011-08-21T12:37:34</time>
      </trkpt>
      <trkpt lat="53.409132" lon="9.635403021">
        <ele>15</ele>
        <time>2011-08-21T12:37:47</time>
      </trkpt>
      <trkpt lat="53.408637" lon="9.632957021">
        <ele>12</ele>
        <time>2011-08-21T12:37:59</time>
      </trkpt>
      <trkpt lat="53.407735" lon="9.631622021">
        <ele>14</ele>
        <time>2011-08-21T12:38:10</time>
      </trkpt>
      <trkpt lat="53.406613" lon="9.630523021">
        <ele>18</ele>
        <time>2011-08-21T12:38:23</time>
      </trkpt>
      <trkpt lat="53.405735" lon="9.629640021">
        <ele>19</ele>
        <time>2011-08-21T12:38:35</time>
      </trkpt>
      <trkpt lat="53.405652" lon="9.629120021">
        <ele>19</ele>
        <time>2011-08-21T12:38:47</time>
      </trkpt>
      <trkpt lat="53.40705" lon="9.626817021">
        <ele>17</ele>
        <time>2011-08-21T12:39:00</time>
      </trkpt>
      <trkpt lat="53.409343" lon="9.626712021">
        <ele>20</ele>
        <time>2011-08-21T12:39:12</time>
      </trkpt>
      <trkpt lat="53.410775" lon="9.623557021">
        <ele>23</ele>
        <time>2011-08-21T12:39:25</time>
      </trkpt>
      <trkpt lat="53.41127" lon="9.620607021">
        <ele>26</ele>
        <time>2011-08-21T12:39:37</time>
      </trkpt>
      <trkpt lat="53.411653" lon="9.618250021">
        <ele>28</ele>
        <time>2011-08-21T12:39:49</time>
      </trkpt>
      <trkpt lat="53.411998" lon="9.616255021">
        <ele>28</ele>
        <time>2011-08-21T12:40:00</time>
      </trkpt>
      <trkpt lat="53.412715" lon="9.614143021">
        <ele>27</ele>
        <time>2011-08-21T12:40:12</time>
      </trkpt>
      <trkpt lat="53.413067" lon="9.611627021">
        <ele>33</ele>
        <time>2011-08-21T12:40:25</time>
      </trkpt>
      <trkpt lat="53.413163" lon="9.610607021">
        <ele>33</ele>
        <time>2011-08-21T12:40:36</time>
      </trkpt>
      <trkpt lat="53.413777" lon="9.610808021">
        <ele>33</ele>
        <time>2011-08-21T12:40:48</time>
      </trkpt>
      <trkpt lat="53.413997" lon="9.610953021">
        <ele>32</ele>
        <time>2011-08-21T12:41:00</time>
      </trkpt>
      <trkpt lat="53.413998" lon="9.611098021">
        <ele>12</ele>
        <time>2011-08-21T12:45:11</time>
      </trkpt>
      <trkpt lat="53.414208" lon="9.610957021">
        <ele>23</ele>
        <time>2011-08-21T12:45:24</time>
      </trkpt>
      <trkpt lat="53.414232" lon="9.610905021">
        <ele>36</ele>
        <time>2011-08-21T12:45:50</time>
      </trkpt>
      <trkpt lat="53.415537" lon="9.611047021">
        <ele>39</ele>
        <time>2011-08-21T12:46:02</time>
      </trkpt>
      <trkpt lat="53.417972" lon="9.611480021">
        <ele>45</ele>
        <time>2011-08-21T12:46:13</time>
      </trkpt>
      <trkpt lat="53.421755" lon="9.612122021">
        <ele>46</ele>
        <time>2011-08-21T12:46:25</time>
      </trkpt>
      <trkpt lat="53.425713" lon="9.612792021">
        <ele>40</ele>
        <time>2011-08-21T12:46:37</time>
      </trkpt>
      <trkpt lat="53.42933" lon="9.613402021">
        <ele>41</ele>
        <time>2011-08-21T12:46:49</time>
      </trkpt>
      <trkpt lat="53.431478" lon="9.613765021">
        <ele>42</ele>
        <time>2011-08-21T12:47:00</time>
      </trkpt>
      <trkpt lat="53.433005" lon="9.613998021">
        <ele>40</ele>
        <time>2011-08-21T12:47:12</time>
      </trkpt>
      <trkpt lat="53.433017" lon="9.612693021">
        <ele>33</ele>
        <time>2011-08-21T12:47:24</time>
      </trkpt>
      <trkpt lat="53.43268" lon="9.610512021">
        <ele>34</ele>
        <time>2011-08-21T12:47:36</time>
      </trkpt>
      <trkpt lat="53.432223" lon="9.607688021">
        <ele>36</ele>
        <time>2011-08-21T12:47:48</time>
      </trkpt>
      <trkpt lat="53.431535" lon="9.603717021">
        <ele>38</ele>
        <time>2011-08-21T12:48:00</time>
      </trkpt>
      <trkpt lat="53.43064" lon="9.598333021">
        <ele>38</ele>
        <time>2011-08-21T12:48:12</time>
      </trkpt>
      <trkpt lat="53.429727" lon="9.592908021">
        <ele>39</ele>
        <time>2011-08-21T12:48:24</time>
      </trkpt>
      <trkpt lat="53.428732" lon="9.588118021">
        <ele>39</ele>
        <time>2011-08-21T12:48:35</time>
      </trkpt>
      <trkpt lat="53.427012" lon="9.582908021">
        <ele>35</ele>
        <time>2011-08-21T12:48:47</time>
      </trkpt>
      <trkpt lat="53.425092" lon="9.577105021">
        <ele>31</ele>
        <time>2011-08-21T12:49:00</time>
      </trkpt>
      <trkpt lat="53.423515" lon="9.572380021">
        <ele>30</ele>
        <time>2011-08-21T12:49:12</time>
      </trkpt>
      <trkpt lat="53.42186" lon="9.567525021">
        <ele>27</ele>
        <time>2011-08-21T12:49:25</time>
      </trkpt>
      <trkpt lat="53.420192" lon="9.562485021">
        <ele>27</ele>
        <time>2011-08-21T12:49:37</time>
      </trkpt>
      <trkpt lat="53.418612" lon="9.557790021">
        <ele>27</ele>
        <time>2011-08-21T12:49:49</time>
      </trkpt>
      <trkpt lat="53.416358" lon="9.553788021">
        <ele>31</ele>
        <time>2011-08-21T12:50:02</time>
      </trkpt>
      <trkpt lat="53.414752" lon="9.550163021">
        <ele>30</ele>
        <time>2011-08-21T12:50:14</time>
      </trkpt>
      <trkpt lat="53.413057" lon="9.544795021">
        <ele>26</ele>
        <time>2011-08-21T12:50:27</time>
      </trkpt>
      <trkpt lat="53.411567" lon="9.538817021">
        <ele>26</ele>
        <time>2011-08-21T12:50:38</time>
      </trkpt>
      <trkpt lat="53.410522" lon="9.532500021">
        <ele>28</ele>
        <time>2011-08-21T12:50:50</time>
      </trkpt>
      <trkpt lat="53.409478" lon="9.526308021">
        <ele>30</ele>
        <time>2011-08-21T12:51:02</time>
      </trkpt>
      <trkpt lat="53.40841" lon="9.519618021">
        <ele>32</ele>
        <time>2011-08-21T12:51:15</time>
      </trkpt>
      <trkpt lat="53.407403" lon="9.514237021">
        <ele>35</ele>
        <time>2011-08-21T12:51:26</time>
      </trkpt>
      <trkpt lat="53.405508" lon="9.509553021">
        <ele>31</ele>
        <time>2011-08-21T12:51:39</time>
      </trkpt>
      <trkpt lat="53.404418" lon="9.505765021">
        <ele>31</ele>
        <time>2011-08-21T12:51:50</time>
      </trkpt>
      <trkpt lat="53.40402" lon="9.501327021">
        <ele>31</ele>
        <time>2011-08-21T12:52:02</time>
      </trkpt>
      <trkpt lat="53.403372" lon="9.496353021">
        <ele>31</ele>
        <time>2011-08-21T12:52:15</time>
      </trkpt>
      <trkpt lat="53.40148" lon="9.492732021">
        <ele>31</ele>
        <time>2011-08-21T12:52:27</time>
      </trkpt>
      <trkpt lat="53.399268" lon="9.490483021">
        <ele>29</ele>
        <time>2011-08-21T12:52:39</time>
      </trkpt>
      <trkpt lat="53.397368" lon="9.488958021">
        <ele>29</ele>
        <time>2011-08-21T12:52:51</time>
      </trkpt>
      <trkpt lat="53.395635" lon="9.487558021">
        <ele>29</ele>
        <time>2011-08-21T12:53:03</time>
      </trkpt>
      <trkpt lat="53.393753" lon="9.486052021">
        <ele>29</ele>
        <time>2011-08-21T12:53:15</time>
      </trkpt>
      <trkpt lat="53.391758" lon="9.483667021">
        <ele>32</ele>
        <time>2011-08-21T12:53:27</time>
      </trkpt>
      <trkpt lat="53.389638" lon="9.480578021">
        <ele>32</ele>
        <time>2011-08-21T12:53:38</time>
      </trkpt>
      <trkpt lat="53.387105" lon="9.477357021">
        <ele>32</ele>
        <time>2011-08-21T12:53:50</time>
      </trkpt>
      <trkpt lat="53.384428" lon="9.474625021">
        <ele>31</ele>
        <time>2011-08-21T12:54:02</time>
      </trkpt>
      <trkpt lat="53.38178" lon="9.471895021">
        <ele>31</ele>
        <time>2011-08-21T12:54:14</time>
      </trkpt>
      <trkpt lat="53.379998" lon="9.469363021">
        <ele>31</ele>
        <time>2011-08-21T12:54:27</time>
      </trkpt>
      <trkpt lat="53.378863" lon="9.467110021">
        <ele>30</ele>
        <time>2011-08-21T12:54:38</time>
      </trkpt>
      <trkpt lat="53.37835" lon="9.465450021">
        <ele>26</ele>
        <time>2011-08-21T12:54:50</time>
      </trkpt>
      <trkpt lat="53.378312" lon="9.465323021">
        <ele>27</ele>
        <time>2011-08-21T12:55:14</time>
      </trkpt>
      <trkpt lat="53.377863" lon="9.463817021">
        <ele>25</ele>
        <time>2011-08-21T12:55:25</time>
      </trkpt>
      <trkpt lat="53.377067" lon="9.460893021">
        <ele>27</ele>
        <time>2011-08-21T12:55:37</time>
      </trkpt>
      <trkpt lat="53.376403" lon="9.458380021">
        <ele>27</ele>
        <time>2011-08-21T12:55:48</time>
      </trkpt>
      <trkpt lat="53.375267" lon="9.454162021">
        <ele>27</ele>
        <time>2011-08-21T12:56:00</time>
      </trkpt>
      <trkpt lat="53.373802" lon="9.449485021">
        <ele>24</ele>
        <time>2011-08-21T12:56:12</time>
      </trkpt>
      <trkpt lat="53.372165" lon="9.444167021">
        <ele>25</ele>
        <time>2011-08-21T12:56:24</time>
      </trkpt>
      <trkpt lat="53.370638" lon="9.439067021">
        <ele>26</ele>
        <time>2011-08-21T12:56:36</time>
      </trkpt>
      <trkpt lat="53.369282" lon="9.434493021">
        <ele>26</ele>
        <time>2011-08-21T12:56:47</time>
      </trkpt>
      <trkpt lat="53.368968" lon="9.432188021">
        <ele>25</ele>
        <time>2011-08-21T12:56:58</time>
      </trkpt>
      <trkpt lat="53.368007" lon="9.430755021">
        <ele>26</ele>
        <time>2011-08-21T12:57:10</time>
      </trkpt>
      <trkpt lat="53.366595" lon="9.428827021">
        <ele>26</ele>
        <time>2011-08-21T12:57:22</time>
      </trkpt>
      <trkpt lat="53.365357" lon="9.426917021">
        <ele>26</ele>
        <time>2011-08-21T12:57:34</time>
      </trkpt>
      <trkpt lat="53.364678" lon="9.424462021">
        <ele>25</ele>
        <time>2011-08-21T12:57:47</time>
      </trkpt>
      <trkpt lat="53.364197" lon="9.422385021">
        <ele>23</ele>
        <time>2011-08-21T12:57:58</time>
      </trkpt>
      <trkpt lat="53.363352" lon="9.420390021">
        <ele>23</ele>
        <time>2011-08-21T12:58:10</time>
      </trkpt>
      <trkpt lat="53.361468" lon="9.418455021">
        <ele>24</ele>
        <time>2011-08-21T12:58:22</time>
      </trkpt>
      <trkpt lat="53.358035" lon="9.414772021">
        <ele>26</ele>
        <time>2011-08-21T12:58:35</time>
      </trkpt>
      <trkpt lat="53.35606" lon="9.410100021">
        <ele>28</ele>
        <time>2011-08-21T12:58:47</time>
      </trkpt>
      <trkpt lat="53.354557" lon="9.405020021">
        <ele>25</ele>
        <time>2011-08-21T12:58:59</time>
      </trkpt>
      <trkpt lat="53.35238" lon="9.402620021">
        <ele>22</ele>
        <time>2011-08-21T12:59:12</time>
      </trkpt>
      <trkpt lat="53.350573" lon="9.401142021">
        <ele>20</ele>
        <time>2011-08-21T12:59:23</time>
      </trkpt>
      <trkpt lat="53.348527" lon="9.400083021">
        <ele>19</ele>
        <time>2011-08-21T12:59:35</time>
      </trkpt>
      <trkpt lat="53.346457" lon="9.399325021">
        <ele>18</ele>
        <time>2011-08-21T12:59:47</time>
      </trkpt>
      <trkpt lat="53.345693" lon="9.396720021">
        <ele>16</ele>
        <time>2011-08-21T12:59:59</time>
      </trkpt>
      <trkpt lat="53.34424" lon="9.393137021">
        <ele>20</ele>
        <time>2011-08-21T13:00:12</time>
      </trkpt>
      <trkpt lat="53.342703" lon="9.389527021">
        <ele>21</ele>
        <time>2011-08-21T13:00:23</time>
      </trkpt>
      <trkpt lat="53.340928" lon="9.385305021">
        <ele>18</ele>
        <time>2011-08-21T13:00:35</time>
      </trkpt>
      <trkpt lat="53.339535" lon="9.381240021">
        <ele>18</ele>
        <time>2011-08-21T13:00:47</time>
      </trkpt>
      <trkpt lat="53.338757" lon="9.378762021">
        <ele>21</ele>
        <time>2011-08-21T13:00:59</time>
      </trkpt>
      <trkpt lat="53.338038" lon="9.376458021">
        <ele>23</ele>
        <time>2011-08-21T13:01:12</time>
      </trkpt>
      <trkpt lat="53.337292" lon="9.374618021">
        <ele>23</ele>
        <time>2011-08-21T13:01:23</time>
      </trkpt>
      <trkpt lat="53.33604" lon="9.373153021">
        <ele>23</ele>
        <time>2011-08-21T13:01:35</time>
      </trkpt>
      <trkpt lat="53.334678" lon="9.371712021">
        <ele>24</ele>
        <time>2011-08-21T13:01:47</time>
      </trkpt>
      <trkpt lat="53.333983" lon="9.369265021">
        <ele>25</ele>
        <time>2011-08-21T13:01:58</time>
      </trkpt>
      <trkpt lat="53.333027" lon="9.365905021">
        <ele>26</ele>
        <time>2011-08-21T13:02:10</time>
      </trkpt>
      <trkpt lat="53.332057" lon="9.362530021">
        <ele>28</ele>
        <time>2011-08-21T13:02:22</time>
      </trkpt>
      <trkpt lat="53.330675" lon="9.360098021">
        <ele>25</ele>
        <time>2011-08-21T13:02:34</time>
      </trkpt>
      <trkpt lat="53.328953" lon="9.357133021">
        <ele>25</ele>
        <time>2011-08-21T13:02:46</time>
      </trkpt>
      <trkpt lat="53.326907" lon="9.353580021">
        <ele>26</ele>
        <time>2011-08-21T13:02:58</time>
      </trkpt>
      <trkpt lat="53.325862" lon="9.351793021">
        <ele>26</ele>
        <time>2011-08-21T13:03:10</time>
      </trkpt>
      <trkpt lat="53.323243" lon="9.347140021">
        <ele>20</ele>
        <time>2011-08-21T13:03:22</time>
      </trkpt>
      <trkpt lat="53.321485" lon="9.343982021">
        <ele>16</ele>
        <time>2011-08-21T13:03:34</time>
      </trkpt>
      <trkpt lat="53.319692" lon="9.340825021">
        <ele>14</ele>
        <time>2011-08-21T13:03:47</time>
      </trkpt>
      <trkpt lat="53.318335" lon="9.338410021">
        <ele>13</ele>
        <time>2011-08-21T13:03:58</time>
      </trkpt>
      <trkpt lat="53.316997" lon="9.336057021">
        <ele>12</ele>
        <time>2011-08-21T13:04:10</time>
      </trkpt>
      <trkpt lat="53.315825" lon="9.336112021">
        <ele>7</ele>
        <time>2011-08-21T13:04:22</time>
      </trkpt>
      <trkpt lat="53.315007" lon="9.336338021">
        <ele>6</ele>
        <time>2011-08-21T13:04:34</time>
      </trkpt>
      <trkpt lat="53.31527" lon="9.338480021">
        <ele>3</ele>
        <time>2011-08-21T13:04:47</time>
      </trkpt>
      <trkpt lat="53.315938" lon="9.339970021">
        <ele>7</ele>
        <time>2011-08-21T13:04:58</time>
      </trkpt>
      <trkpt lat="53.316055" lon="9.341943021">
        <ele>7</ele>
        <time>2011-08-21T13:05:10</time>
      </trkpt>
      <trkpt lat="53.315845" lon="9.344318021">
        <ele>5</ele>
        <time>2011-08-21T13:05:22</time>
      </trkpt>
      <trkpt lat="53.315645" lon="9.346675021">
        <ele>5</ele>
        <time>2011-08-21T13:05:33</time>
      </trkpt>
      <trkpt lat="53.31543" lon="9.349638021">
        <ele>6</ele>
        <time>2011-08-21T13:05:45</time>
      </trkpt>
      <trkpt lat="53.315542" lon="9.354840021">
        <ele>3</ele>
        <time>2011-08-21T13:05:57</time>
      </trkpt>
      <trkpt lat="53.315677" lon="9.358312021">
        <ele>4</ele>
        <time>2011-08-21T13:06:09</time>
      </trkpt>
      <trkpt lat="53.316062" lon="9.361507021">
        <ele>4</ele>
        <time>2011-08-21T13:06:21</time>
      </trkpt>
      <trkpt lat="53.31637" lon="9.363978021">
        <ele>3</ele>
        <time>2011-08-21T13:06:32</time>
      </trkpt>
      <trkpt lat="53.315627" lon="9.365605021">
        <ele>1</ele>
        <time>2011-08-21T13:06:44</time>
      </trkpt>
      <trkpt lat="53.314332" lon="9.366545021">
        <ele>4</ele>
        <time>2011-08-21T13:06:57</time>
      </trkpt>
      <trkpt lat="53.31229" lon="9.367353021">
        <ele>4</ele>
        <time>2011-08-21T13:07:09</time>
      </trkpt>
      <trkpt lat="53.310345" lon="9.368630021">
        <ele>6</ele>
        <time>2011-08-21T13:07:20</time>
      </trkpt>
      <trkpt lat="53.308317" lon="9.371198021">
        <ele>13</ele>
        <time>2011-08-21T13:07:32</time>
      </trkpt>
      <trkpt lat="53.306558" lon="9.373493021">
        <ele>15</ele>
        <time>2011-08-21T13:07:44</time>
      </trkpt>
      <trkpt lat="53.304863" lon="9.375717021">
        <ele>16</ele>
        <time>2011-08-21T13:07:57</time>
      </trkpt>
      <trkpt lat="53.303357" lon="9.378205021">
        <ele>17</ele>
        <time>2011-08-21T13:08:09</time>
      </trkpt>
      <trkpt lat="53.301913" lon="9.380762021">
        <ele>18</ele>
        <time>2011-08-21T13:08:22</time>
      </trkpt>
      <trkpt lat="53.300967" lon="9.382418021">
        <ele>17</ele>
        <time>2011-08-21T13:08:33</time>
      </trkpt>
      <trkpt lat="53.299607" lon="9.384215021">
        <ele>15</ele>
        <time>2011-08-21T13:08:45</time>
      </trkpt>
      <trkpt lat="53.298828" lon="9.384922021">
        <ele>14</ele>
        <time>2011-08-21T13:08:56</time>
      </trkpt>
      <trkpt lat="53.298712" lon="9.386107021">
        <ele>14</ele>
        <time>2011-08-21T13:09:08</time>
      </trkpt>
      <trkpt lat="53.298818" lon="9.388867021">
        <ele>16</ele>
        <time>2011-08-21T13:09:20</time>
      </trkpt>
      <trkpt lat="53.298953" lon="9.392562021">
        <ele>15</ele>
        <time>2011-08-21T13:09:32</time>
      </trkpt>
      <trkpt lat="53.299075" lon="9.396602021">
        <ele>15</ele>
        <time>2011-08-21T13:09:45</time>
      </trkpt>
      <trkpt lat="53.299217" lon="9.400450021">
        <ele>15</ele>
        <time>2011-08-21T13:09:57</time>
      </trkpt>
      <trkpt lat="53.299023" lon="9.405413021">
        <ele>11</ele>
        <time>2011-08-21T13:10:09</time>
      </trkpt>
      <trkpt lat="53.298702" lon="9.410000021">
        <ele>14</ele>
        <time>2011-08-21T13:10:20</time>
      </trkpt>
      <trkpt lat="53.297562" lon="9.413582021">
        <ele>12</ele>
        <time>2011-08-21T13:10:32</time>
      </trkpt>
      <trkpt lat="53.295862" lon="9.417495021">
        <ele>15</ele>
        <time>2011-08-21T13:10:44</time>
      </trkpt>
      <trkpt lat="53.293733" lon="9.424545021">
        <ele>21</ele>
        <time>2011-08-21T13:10:57</time>
      </trkpt>
      <trkpt lat="53.292162" lon="9.430060021">
        <ele>21</ele>
        <time>2011-08-21T13:11:08</time>
      </trkpt>
      <trkpt lat="53.290783" lon="9.434758021">
        <ele>16</ele>
        <time>2011-08-21T13:11:20</time>
      </trkpt>
      <trkpt lat="53.289803" lon="9.438128021">
        <ele>9</ele>
        <time>2011-08-21T13:11:32</time>
      </trkpt>
      <trkpt lat="53.288913" lon="9.441683021">
        <ele>18</ele>
        <time>2011-08-21T13:11:44</time>
      </trkpt>
      <trkpt lat="53.28832" lon="9.446473021">
        <ele>24</ele>
        <time>2011-08-21T13:11:57</time>
      </trkpt>
      <trkpt lat="53.288358" lon="9.448902021">
        <ele>26</ele>
        <time>2011-08-21T13:12:08</time>
      </trkpt>
      <trkpt lat="53.2885" lon="9.452200021">
        <ele>30</ele>
        <time>2011-08-21T13:12:20</time>
      </trkpt>
      <trkpt lat="53.288698" lon="9.456870021">
        <ele>31</ele>
        <time>2011-08-21T13:12:32</time>
      </trkpt>
      <trkpt lat="53.288625" lon="9.463188021">
        <ele>25</ele>
        <time>2011-08-21T13:12:45</time>
      </trkpt>
      <trkpt lat="53.286503" lon="9.467887021">
        <ele>22</ele>
        <time>2011-08-21T13:12:57</time>
      </trkpt>
      <trkpt lat="53.284227" lon="9.471562021">
        <ele>24</ele>
        <time>2011-08-21T13:13:08</time>
      </trkpt>
      <trkpt lat="53.282473" lon="9.474312021">
        <ele>27</ele>
        <time>2011-08-21T13:13:20</time>
      </trkpt>
      <trkpt lat="53.281035" lon="9.476852021">
        <ele>25</ele>
        <time>2011-08-21T13:13:32</time>
      </trkpt>
      <trkpt lat="53.27981" lon="9.479672021">
        <ele>21</ele>
        <time>2011-08-21T13:13:43</time>
      </trkpt>
      <trkpt lat="53.279842" lon="9.483805021">
        <ele>20</ele>
        <time>2011-08-21T13:13:55</time>
      </trkpt>
      <trkpt lat="53.280015" lon="9.487838021">
        <ele>23</ele>
        <time>2011-08-21T13:14:07</time>
      </trkpt>
      <trkpt lat="53.280162" lon="9.491415021">
        <ele>25</ele>
        <time>2011-08-21T13:14:19</time>
      </trkpt>
      <trkpt lat="53.280273" lon="9.494422021">
        <ele>27</ele>
        <time>2011-08-21T13:14:32</time>
      </trkpt>
      <trkpt lat="53.280365" lon="9.496917021">
        <ele>27</ele>
        <time>2011-08-21T13:14:44</time>
      </trkpt>
      <trkpt lat="53.280323" lon="9.499270021">
        <ele>27</ele>
        <time>2011-08-21T13:14:55</time>
      </trkpt>
      <trkpt lat="53.279728" lon="9.502095021">
        <ele>28</ele>
        <time>2011-08-21T13:15:07</time>
      </trkpt>
      <trkpt lat="53.278832" lon="9.504265021">
        <ele>27</ele>
        <time>2011-08-21T13:15:19</time>
      </trkpt>
      <trkpt lat="53.278762" lon="9.504820021">
        <ele>26</ele>
        <time>2011-08-21T13:15:32</time>
      </trkpt>
      <trkpt lat="53.278685" lon="9.504860021">
        <ele>22</ele>
        <time>2011-08-21T13:16:44</time>
      </trkpt>
      <trkpt lat="53.277325" lon="9.505082021">
        <ele>18</ele>
        <time>2011-08-21T13:16:57</time>
      </trkpt>
      <trkpt lat="53.276845" lon="9.506193021">
        <ele>18</ele>
        <time>2011-08-21T13:17:09</time>
      </trkpt>
      <trkpt lat="53.276475" lon="9.507162021">
        <ele>18</ele>
        <time>2011-08-21T13:17:20</time>
      </trkpt>
      <trkpt lat="53.276495" lon="9.508628021">
        <ele>19</ele>
        <time>2011-08-21T13:17:32</time>
      </trkpt>
      <trkpt lat="53.276475" lon="9.510405021">
        <ele>22</ele>
        <time>2011-08-21T13:17:44</time>
      </trkpt>
      <trkpt lat="53.276622" lon="9.512527021">
        <ele>24</ele>
        <time>2011-08-21T13:17:57</time>
      </trkpt>
      <trkpt lat="53.276772" lon="9.514617021">
        <ele>26</ele>
        <time>2011-08-21T13:18:09</time>
      </trkpt>
      <trkpt lat="53.276938" lon="9.516930021">
        <ele>28</ele>
        <time>2011-08-21T13:18:24</time>
      </trkpt>
      <trkpt lat="53.277027" lon="9.517977021">
        <ele>30</ele>
        <time>2011-08-21T13:18:35</time>
      </trkpt>
      <trkpt lat="53.277267" lon="9.521332021">
        <ele>32</ele>
        <time>2011-08-21T13:18:47</time>
      </trkpt>
      <trkpt lat="53.277497" lon="9.524593021">
        <ele>30</ele>
        <time>2011-08-21T13:19:00</time>
      </trkpt>
      <trkpt lat="53.277682" lon="9.527165021">
        <ele>29</ele>
        <time>2011-08-21T13:19:12</time>
      </trkpt>
      <trkpt lat="53.27821" lon="9.529868021">
        <ele>28</ele>
        <time>2011-08-21T13:19:25</time>
      </trkpt>
      <trkpt lat="53.278823" lon="9.532825021">
        <ele>29</ele>
        <time>2011-08-21T13:19:37</time>
      </trkpt>
      <trkpt lat="53.279022" lon="9.535407021">
        <ele>30</ele>
        <time>2011-08-21T13:19:56</time>
      </trkpt>
      <trkpt lat="53.280227" lon="9.534970021">
        <ele>31</ele>
        <time>2011-08-21T13:20:07</time>
      </trkpt>
      <trkpt lat="53.28211" lon="9.534287021">
        <ele>29</ele>
        <time>2011-08-21T13:20:20</time>
      </trkpt>
      <trkpt lat="53.283357" lon="9.533867021">
        <ele>28</ele>
        <time>2011-08-21T13:20:32</time>
      </trkpt>
      <trkpt lat="53.28403" lon="9.533953021">
        <ele>25</ele>
        <time>2011-08-21T13:20:44</time>
      </trkpt>
      <trkpt lat="53.28495" lon="9.534457021">
        <ele>25</ele>
        <time>2011-08-21T13:20:55</time>
      </trkpt>
      <trkpt lat="53.285398" lon="9.535882021">
        <ele>30</ele>
        <time>2011-08-21T13:21:07</time>
      </trkpt>
      <trkpt lat="53.285735" lon="9.537373021">
        <ele>30</ele>
        <time>2011-08-21T13:21:20</time>
      </trkpt>
      <trkpt lat="53.286337" lon="9.539677021">
        <ele>28</ele>
        <time>2011-08-21T13:21:32</time>
      </trkpt>
      <trkpt lat="53.286805" lon="9.543047021">
        <ele>27</ele>
        <time>2011-08-21T13:21:44</time>
      </trkpt>
      <trkpt lat="53.287105" lon="9.546597021">
        <ele>26</ele>
        <time>2011-08-21T13:21:57</time>
      </trkpt>
      <trkpt lat="53.286863" lon="9.550235021">
        <ele>26</ele>
        <time>2011-08-21T13:22:08</time>
      </trkpt>
      <trkpt lat="53.286553" lon="9.554902021">
        <ele>26</ele>
        <time>2011-08-21T13:22:20</time>
      </trkpt>
      <trkpt lat="53.285765" lon="9.558727021">
        <ele>25</ele>
        <time>2011-08-21T13:22:32</time>
      </trkpt>
      <trkpt lat="53.28379" lon="9.560985021">
        <ele>26</ele>
        <time>2011-08-21T13:22:45</time>
      </trkpt>
      <trkpt lat="53.281845" lon="9.563200021">
        <ele>26</ele>
        <time>2011-08-21T13:22:57</time>
      </trkpt>
      <trkpt lat="53.280285" lon="9.564698021">
        <ele>26</ele>
        <time>2011-08-21T13:23:09</time>
      </trkpt>
      <trkpt lat="53.280037" lon="9.566740021">
        <ele>27</ele>
        <time>2011-08-21T13:24:10</time>
      </trkpt>
      <trkpt lat="53.279487" lon="9.566910021">
        <ele>26</ele>
        <time>2011-08-21T13:24:22</time>
      </trkpt>
      <trkpt lat="53.278985" lon="9.567078021">
        <ele>27</ele>
        <time>2011-08-21T13:24:34</time>
      </trkpt>
      <trkpt lat="53.278625" lon="9.567123021">
        <ele>27</ele>
        <time>2011-08-21T13:24:46</time>
      </trkpt>
      <trkpt lat="53.27906" lon="9.567110021">
        <ele>26</ele>
        <time>2011-08-21T13:24:58</time>
      </trkpt>
      <trkpt lat="53.279612" lon="9.566893021">
        <ele>24</ele>
        <time>2011-08-21T13:25:10</time>
      </trkpt>
      <trkpt lat="53.2799553337705" lon="9.56690537772129">
        <ele>25</ele>
        <time>2011-08-21T13:25:22</time>
      </trkpt>
      <trkpt lat="53.279848" lon="9.569545021">
        <ele>26</ele>
        <time>2011-08-21T13:25:35</time>
      </trkpt>
      <trkpt lat="53.27932" lon="9.574485021">
        <ele>27</ele>
        <time>2011-08-21T13:25:47</time>
      </trkpt>
      <trkpt lat="53.279295" lon="9.580292021">
        <ele>28</ele>
        <time>2011-08-21T13:25:59</time>
      </trkpt>
      <trkpt lat="53.279375" lon="9.586080021">
        <ele>26</ele>
        <time>2011-08-21T13:26:11</time>
      </trkpt>
      <trkpt lat="53.279333" lon="9.591105021">
        <ele>27</ele>
        <time>2011-08-21T13:26:22</time>
      </trkpt>
      <trkpt lat="53.279038" lon="9.597205021">
        <ele>28</ele>
        <time>2011-08-21T13:26:35</time>
      </trkpt>
      <trkpt lat="53.278705" lon="9.603948021">
        <ele>29</ele>
        <time>2011-08-21T13:26:47</time>
      </trkpt>
      <trkpt lat="53.278412" lon="9.609600021">
        <ele>34</ele>
        <time>2011-08-21T13:26:59</time>
      </trkpt>
      <trkpt lat="53.278178" lon="9.613658021">
        <ele>33</ele>
        <time>2011-08-21T13:27:11</time>
      </trkpt>
      <trkpt lat="53.277283" lon="9.617488021">
        <ele>32</ele>
        <time>2011-08-21T13:27:22</time>
      </trkpt>
      <trkpt lat="53.276168" lon="9.622008021">
        <ele>33</ele>
        <time>2011-08-21T13:27:34</time>
      </trkpt>
      <trkpt lat="53.275113" lon="9.626683021">
        <ele>33</ele>
        <time>2011-08-21T13:27:46</time>
      </trkpt>
      <trkpt lat="53.274498" lon="9.632092021">
        <ele>33</ele>
        <time>2011-08-21T13:27:57</time>
      </trkpt>
      <trkpt lat="53.273915" lon="9.637825021">
        <ele>32</ele>
        <time>2011-08-21T13:28:09</time>
      </trkpt>
      <trkpt lat="53.273327" lon="9.643695021">
        <ele>33</ele>
        <time>2011-08-21T13:28:21</time>
      </trkpt>
      <trkpt lat="53.272845" lon="9.648733021">
        <ele>35</ele>
        <time>2011-08-21T13:28:32</time>
      </trkpt>
      <trkpt lat="53.272183" lon="9.655155021">
        <ele>36</ele>
        <time>2011-08-21T13:28:45</time>
      </trkpt>
      <trkpt lat="53.2716" lon="9.660835021">
        <ele>40</ele>
        <time>2011-08-21T13:28:57</time>
      </trkpt>
      <trkpt lat="53.27184" lon="9.665595021">
        <ele>51</ele>
        <time>2011-08-21T13:29:08</time>
      </trkpt>
      <trkpt lat="53.272718" lon="9.671040021">
        <ele>55</ele>
        <time>2011-08-21T13:29:20</time>
      </trkpt>
      <trkpt lat="53.272545" lon="9.675583021">
        <ele>47</ele>
        <time>2011-08-21T13:29:32</time>
      </trkpt>
      <trkpt lat="53.272142" lon="9.678372021">
        <ele>42</ele>
        <time>2011-08-21T13:29:45</time>
      </trkpt>
      <trkpt lat="53.270962" lon="9.680495021">
        <ele>40</ele>
        <time>2011-08-21T13:29:56</time>
      </trkpt>
      <trkpt lat="53.270467" lon="9.681335021">
        <ele>41</ele>
        <time>2011-08-21T13:30:07</time>
      </trkpt>
      <trkpt lat="53.270805" lon="9.682167021">
        <ele>42</ele>
        <time>2011-08-21T13:30:19</time>
      </trkpt>
      <trkpt lat="53.271702" lon="9.683885021">
        <ele>43</ele>
        <time>2011-08-21T13:30:32</time>
      </trkpt>
      <trkpt lat="53.270888" lon="9.685243021">
        <ele>41</ele>
        <time>2011-08-21T13:30:43</time>
      </trkpt>
      <trkpt lat="53.269763" lon="9.686907021">
        <ele>41</ele>
        <time>2011-08-21T13:30:55</time>
      </trkpt>
      <trkpt lat="53.268247" lon="9.689367021">
        <ele>42</ele>
        <time>2011-08-21T13:31:07</time>
      </trkpt>
      <trkpt lat="53.267815" lon="9.692545021">
        <ele>43</ele>
        <time>2011-08-21T13:31:19</time>
      </trkpt>
      <trkpt lat="53.267555" lon="9.694923021">
        <ele>44</ele>
        <time>2011-08-21T13:31:31</time>
      </trkpt>
      <trkpt lat="53.266517" lon="9.697122021">
        <ele>43</ele>
        <time>2011-08-21T13:31:42</time>
      </trkpt>
      <trkpt lat="53.265085" lon="9.698785021">
        <ele>40</ele>
        <time>2011-08-21T13:31:54</time>
      </trkpt>
      <trkpt lat="53.263448" lon="9.698837021">
        <ele>43</ele>
        <time>2011-08-21T13:32:07</time>
      </trkpt>
      <trkpt lat="53.262238" lon="9.698985021">
        <ele>41</ele>
        <time>2011-08-21T13:32:18</time>
      </trkpt>
      <trkpt lat="53.261058" lon="9.699157021">
        <ele>42</ele>
        <time>2011-08-21T13:32:30</time>
      </trkpt>
      <trkpt lat="53.259328" lon="9.699282021">
        <ele>40</ele>
        <time>2011-08-21T13:32:42</time>
      </trkpt>
      <trkpt lat="53.257797" lon="9.700030021">
        <ele>40</ele>
        <time>2011-08-21T13:32:53</time>
      </trkpt>
      <trkpt lat="53.256992" lon="9.701177021">
        <ele>39</ele>
        <time>2011-08-21T13:33:05</time>
      </trkpt>
      <trkpt lat="53.255693" lon="9.701468021">
        <ele>39</ele>
        <time>2011-08-21T13:33:17</time>
      </trkpt>
      <trkpt lat="53.254073" lon="9.701430021">
        <ele>39</ele>
        <time>2011-08-21T13:33:29</time>
      </trkpt>
      <trkpt lat="53.25226" lon="9.701762021">
        <ele>40</ele>
        <time>2011-08-21T13:33:42</time>
      </trkpt>
      <trkpt lat="53.250422" lon="9.702402021">
        <ele>48</ele>
        <time>2011-08-21T13:33:53</time>
      </trkpt>
      <trkpt lat="53.248508" lon="9.703055021">
        <ele>58</ele>
        <time>2011-08-21T13:34:05</time>
      </trkpt>
      <trkpt lat="53.247473" lon="9.703243021">
        <ele>65</ele>
        <time>2011-08-21T13:34:17</time>
      </trkpt>
      <trkpt lat="53.247313" lon="9.701952021">
        <ele>66</ele>
        <time>2011-08-21T13:34:28</time>
      </trkpt>
      <trkpt lat="53.245992" lon="9.701395021">
        <ele>45</ele>
        <time>2011-08-21T13:34:40</time>
      </trkpt>
      <trkpt lat="53.244712" lon="9.701493021">
        <ele>6</ele>
        <time>2011-08-21T13:34:51</time>
      </trkpt>
      <trkpt lat="53.243262" lon="9.700967021">
        <ele>24</ele>
        <time>2011-08-21T13:35:03</time>
      </trkpt>
      <trkpt lat="53.241338" lon="9.700085021">
        <ele>36</ele>
        <time>2011-08-21T13:35:15</time>
      </trkpt>
      <trkpt lat="53.2394438924148" lon="9.69949627422005">
        <ele>61.001</ele>
        <time>2011-08-21T18:15:37.001</time>
      </trkpt>
      <trkpt lat="53.2365" lon="9.696608021">
        <ele>13</ele>
        <time>2011-08-21T13:35:50</time>
      </trkpt>
      <trkpt lat="53.234868" lon="9.695677021">
        <ele>27</ele>
        <time>2011-08-21T13:36:02</time>
      </trkpt>
      <trkpt lat="53.233032" lon="9.697020021">
        <ele>32</ele>
        <time>2011-08-21T13:36:15</time>
      </trkpt>
      <trkpt lat="53.232277" lon="9.696780021">
        <ele>37</ele>
        <time>2011-08-21T13:36:27</time>
      </trkpt>
      <trkpt lat="53.231237" lon="9.696368021">
        <ele>35</ele>
        <time>2011-08-21T13:36:38</time>
      </trkpt>
      <trkpt lat="53.228888" lon="9.696057021">
        <ele>34</ele>
        <time>2011-08-21T13:36:50</time>
      </trkpt>
      <trkpt lat="53.226025" lon="9.695655021">
        <ele>36</ele>
        <time>2011-08-21T13:37:02</time>
      </trkpt>
      <trkpt lat="53.2240165360898" lon="9.69574816069498">
        <ele>36</ele>
        <time>2011-08-21T13:39:14</time>
      </trkpt>
      <trkpt lat="53.221885" lon="9.705370021">
        <ele>36</ele>
        <time>2011-08-21T13:39:27</time>
      </trkpt>
      <trkpt lat="53.220667" lon="9.710830021">
        <ele>37</ele>
        <time>2011-08-21T13:39:38</time>
      </trkpt>
      <trkpt lat="53.219508" lon="9.715057021">
        <ele>37</ele>
        <time>2011-08-21T13:39:50</time>
      </trkpt>
      <trkpt lat="53.217152" lon="9.715947021">
        <ele>36</ele>
        <time>2011-08-21T13:40:02</time>
      </trkpt>
      <trkpt lat="53.214353" lon="9.714562021">
        <ele>36</ele>
        <time>2011-08-21T13:40:14</time>
      </trkpt>
      <trkpt lat="53.211835" lon="9.712770021">
        <ele>39</ele>
        <time>2011-08-21T13:40:26</time>
      </trkpt>
      <trkpt lat="53.209247" lon="9.710947021">
        <ele>38</ele>
        <time>2011-08-21T13:40:37</time>
      </trkpt>
      <trkpt lat="53.206252" lon="9.708862021">
        <ele>40</ele>
        <time>2011-08-21T13:40:50</time>
      </trkpt>
      <trkpt lat="53.203963" lon="9.707267021">
        <ele>41</ele>
        <time>2011-08-21T13:41:02</time>
      </trkpt>
      <trkpt lat="53.202313" lon="9.706260021">
        <ele>38</ele>
        <time>2011-08-21T13:41:13</time>
      </trkpt>
      <trkpt lat="53.200217" lon="9.706770021">
        <ele>36</ele>
        <time>2011-08-21T13:41:25</time>
      </trkpt>
      <trkpt lat="53.19869" lon="9.708988021">
        <ele>39</ele>
        <time>2011-08-21T13:41:37</time>
      </trkpt>
      <trkpt lat="53.197453" lon="9.712880021">
        <ele>40</ele>
        <time>2011-08-21T13:41:48</time>
      </trkpt>
      <trkpt lat="53.19597" lon="9.718192021">
        <ele>42</ele>
        <time>2011-08-21T13:42:00</time>
      </trkpt>
      <trkpt lat="53.194678" lon="9.722810021">
        <ele>42</ele>
        <time>2011-08-21T13:42:12</time>
      </trkpt>
      <trkpt lat="53.194347" lon="9.724103021">
        <ele>43</ele>
        <time>2011-08-21T13:43:08</time>
      </trkpt>
      <trkpt lat="53.1933" lon="9.727828021">
        <ele>45</ele>
        <time>2011-08-21T13:43:20</time>
      </trkpt>
      <trkpt lat="53.191267" lon="9.732730021">
        <ele>46</ele>
        <time>2011-08-21T13:43:32</time>
      </trkpt>
      <trkpt lat="53.189417" lon="9.737062021">
        <ele>48</ele>
        <time>2011-08-21T13:43:44</time>
      </trkpt>
      <trkpt lat="53.188577" lon="9.740515021">
        <ele>51</ele>
        <time>2011-08-21T13:43:57</time>
      </trkpt>
      <trkpt lat="53.1885156455458" lon="9.74148230651212">
        <ele>48</ele>
        <time>2011-08-21T13:44:08</time>
      </trkpt>
      <trkpt lat="53.1875786653138" lon="9.74139192611508">
        <ele>53.001</ele>
        <time>2011-08-21T17:59:31.261</time>
      </trkpt>
      <trkpt lat="53.1874339447439" lon="9.74309903769176">
        <ele>44</ele>
        <time>2011-08-21T13:46:07</time>
      </trkpt>
      <trkpt lat="53.1870155410085" lon="9.74576766107879">
        <ele>45</ele>
        <time>2011-08-21T13:46:18</time>
      </trkpt>
      <trkpt lat="53.186918" lon="9.746693021">
        <ele>51</ele>
        <time>2011-08-21T13:47:56</time>
      </trkpt>
      <trkpt lat="53.186797" lon="9.748187021">
        <ele>51</ele>
        <time>2011-08-21T13:48:07</time>
      </trkpt>
      <trkpt lat="53.187255" lon="9.750503021">
        <ele>52</ele>
        <time>2011-08-21T13:48:20</time>
      </trkpt>
      <trkpt lat="53.188075" lon="9.754507021">
        <ele>50</ele>
        <time>2011-08-21T13:48:41</time>
      </trkpt>
      <trkpt lat="53.188202" lon="9.755202021">
        <ele>55</ele>
        <time>2011-08-21T13:49:12</time>
      </trkpt>
      <trkpt lat="53.188497" lon="9.757233021">
        <ele>52</ele>
        <time>2011-08-21T13:49:24</time>
      </trkpt>
      <trkpt lat="53.187448" lon="9.759283021">
        <ele>52</ele>
        <time>2011-08-21T13:49:36</time>
      </trkpt>
      <trkpt lat="53.187535" lon="9.760323021">
        <ele>52</ele>
        <time>2011-08-21T13:49:47</time>
      </trkpt>
      <trkpt lat="53.188705" lon="9.763873021">
        <ele>53</ele>
        <time>2011-08-21T13:49:59</time>
      </trkpt>
      <trkpt lat="53.190012" lon="9.767935021">
        <ele>51</ele>
        <time>2011-08-21T13:50:12</time>
      </trkpt>
      <trkpt lat="53.190927" lon="9.770792021">
        <ele>49</ele>
        <time>2011-08-21T13:50:23</time>
      </trkpt>
      <trkpt lat="53.192367" lon="9.772245021">
        <ele>48</ele>
        <time>2011-08-21T13:50:35</time>
      </trkpt>
      <trkpt lat="53.194115" lon="9.773800021">
        <ele>49</ele>
        <time>2011-08-21T13:50:47</time>
      </trkpt>
      <trkpt lat="53.194963" lon="9.774723021">
        <ele>47</ele>
        <time>2011-08-21T13:50:59</time>
      </trkpt>
      <trkpt lat="53.195917" lon="9.776732021">
        <ele>47</ele>
        <time>2011-08-21T13:51:12</time>
      </trkpt>
      <trkpt lat="53.197393" lon="9.778832021">
        <ele>45</ele>
        <time>2011-08-21T13:51:23</time>
      </trkpt>
      <trkpt lat="53.199237" lon="9.780710021">
        <ele>45</ele>
        <time>2011-08-21T13:51:35</time>
      </trkpt>
      <trkpt lat="53.201507" lon="9.782300021">
        <ele>47</ele>
        <time>2011-08-21T13:51:47</time>
      </trkpt>
      <trkpt lat="53.20323" lon="9.783525021">
        <ele>52</ele>
        <time>2011-08-21T13:51:58</time>
      </trkpt>
      <trkpt lat="53.20576" lon="9.785305021">
        <ele>52</ele>
        <time>2011-08-21T13:52:10</time>
      </trkpt>
      <trkpt lat="53.208353" lon="9.787080021">
        <ele>53</ele>
        <time>2011-08-21T13:52:22</time>
      </trkpt>
      <trkpt lat="53.209822" lon="9.788105021">
        <ele>55</ele>
        <time>2011-08-21T13:52:34</time>
      </trkpt>
      <trkpt lat="53.210683" lon="9.788753021">
        <ele>52</ele>
        <time>2011-08-21T13:52:47</time>
      </trkpt>
      <trkpt lat="53.212107" lon="9.789773021">
        <ele>52</ele>
        <time>2011-08-21T13:52:58</time>
      </trkpt>
      <trkpt lat="53.213747" lon="9.790935021">
        <ele>51</ele>
        <time>2011-08-21T13:53:10</time>
      </trkpt>
      <trkpt lat="53.214457" lon="9.791452021">
        <ele>51</ele>
        <time>2011-08-21T13:53:22</time>
      </trkpt>
      <trkpt lat="53.216613" lon="9.793005021">
        <ele>49</ele>
        <time>2011-08-21T13:53:34</time>
      </trkpt>
      <trkpt lat="53.218717" lon="9.794585021">
        <ele>47</ele>
        <time>2011-08-21T13:53:47</time>
      </trkpt>
      <trkpt lat="53.220782" lon="9.795230021">
        <ele>44</ele>
        <time>2011-08-21T13:53:59</time>
      </trkpt>
      <trkpt lat="53.222857" lon="9.795807021">
        <ele>45</ele>
        <time>2011-08-21T13:54:11</time>
      </trkpt>
      <trkpt lat="53.22469" lon="9.796308021">
        <ele>47</ele>
        <time>2011-08-21T13:54:22</time>
      </trkpt>
      <trkpt lat="53.226675" lon="9.796907021">
        <ele>46</ele>
        <time>2011-08-21T13:54:34</time>
      </trkpt>
      <trkpt lat="53.22827" lon="9.797732021">
        <ele>47</ele>
        <time>2011-08-21T13:54:47</time>
      </trkpt>
      <trkpt lat="53.229447" lon="9.798375021">
        <ele>49</ele>
        <time>2011-08-21T13:54:58</time>
      </trkpt>
      <trkpt lat="53.230995" lon="9.799167021">
        <ele>46</ele>
        <time>2011-08-21T13:55:10</time>
      </trkpt>
      <trkpt lat="53.232418" lon="9.799893021">
        <ele>42</ele>
        <time>2011-08-21T13:55:22</time>
      </trkpt>
      <trkpt lat="53.23372" lon="9.800595021">
        <ele>42</ele>
        <time>2011-08-21T13:55:33</time>
      </trkpt>
      <trkpt lat="53.235127" lon="9.801350021">
        <ele>45</ele>
        <time>2011-08-21T13:55:45</time>
      </trkpt>
      <trkpt lat="53.236408" lon="9.802025021">
        <ele>45</ele>
        <time>2011-08-21T13:55:56</time>
      </trkpt>
      <trkpt lat="53.237073" lon="9.802580021">
        <ele>43</ele>
        <time>2011-08-21T13:56:09</time>
      </trkpt>
      <trkpt lat="53.237142" lon="9.802698021">
        <ele>44</ele>
        <time>2011-08-21T13:56:22</time>
      </trkpt>
      <trkpt lat="53.23852" lon="9.802162021">
        <ele>41</ele>
        <time>2011-08-21T13:56:33</time>
      </trkpt>
      <trkpt lat="53.240045" lon="9.801610021">
        <ele>43</ele>
        <time>2011-08-21T13:56:45</time>
      </trkpt>
      <trkpt lat="53.240188" lon="9.801587021">
        <ele>46</ele>
        <time>2011-08-21T13:56:58</time>
      </trkpt>
      <trkpt lat="53.240432" lon="9.802053021">
        <ele>48</ele>
        <time>2011-08-21T13:57:09</time>
      </trkpt>
      <trkpt lat="53.240937" lon="9.804072021">
        <ele>46</ele>
        <time>2011-08-21T13:57:21</time>
      </trkpt>
      <trkpt lat="53.241618" lon="9.806570021">
        <ele>47</ele>
        <time>2011-08-21T13:57:32</time>
      </trkpt>
      <trkpt lat="53.241723" lon="9.807923021">
        <ele>47</ele>
        <time>2011-08-21T13:57:43</time>
      </trkpt>
      <trkpt lat="53.241788" lon="9.808213021">
        <ele>45</ele>
        <time>2011-08-21T13:59:53</time>
      </trkpt>
      <trkpt lat="53.242088" lon="9.811332021">
        <ele>48</ele>
        <time>2011-08-21T14:00:04</time>
      </trkpt>
      <trkpt lat="53.242575" lon="9.816508021">
        <ele>50</ele>
        <time>2011-08-21T14:00:17</time>
      </trkpt>
      <trkpt lat="53.243012" lon="9.820215021">
        <ele>54</ele>
        <time>2011-08-21T14:00:28</time>
      </trkpt>
      <trkpt lat="53.243647" lon="9.823907021">
        <ele>59</ele>
        <time>2011-08-21T14:00:40</time>
      </trkpt>
      <trkpt lat="53.244225" lon="9.827313021">
        <ele>63</ele>
        <time>2011-08-21T14:00:52</time>
      </trkpt>
      <trkpt lat="53.244715" lon="9.830263021">
        <ele>62</ele>
        <time>2011-08-21T14:01:03</time>
      </trkpt>
      <trkpt lat="53.24482" lon="9.832697021">
        <ele>56</ele>
        <time>2011-08-21T14:01:15</time>
      </trkpt>
      <trkpt lat="53.245177" lon="9.835135021">
        <ele>53</ele>
        <time>2011-08-21T14:01:27</time>
      </trkpt>
      <trkpt lat="53.245667" lon="9.838018021">
        <ele>51</ele>
        <time>2011-08-21T14:01:39</time>
      </trkpt>
      <trkpt lat="53.245583" lon="9.839937021">
        <ele>49</ele>
        <time>2011-08-21T14:01:52</time>
      </trkpt>
      <trkpt lat="53.24506" lon="9.841067021">
        <ele>48</ele>
        <time>2011-08-21T14:02:03</time>
      </trkpt>
      <trkpt lat="53.24431" lon="9.842523021">
        <ele>47</ele>
        <time>2011-08-21T14:02:15</time>
      </trkpt>
      <trkpt lat="53.243405" lon="9.844273021">
        <ele>45</ele>
        <time>2011-08-21T14:02:27</time>
      </trkpt>
      <trkpt lat="53.242557" lon="9.846013021">
        <ele>42</ele>
        <time>2011-08-21T14:02:39</time>
      </trkpt>
      <trkpt lat="53.241507" lon="9.848092021">
        <ele>42</ele>
        <time>2011-08-21T14:02:50</time>
      </trkpt>
      <trkpt lat="53.240245" lon="9.850252021">
        <ele>40</ele>
        <time>2011-08-21T14:03:02</time>
      </trkpt>
      <trkpt lat="53.238778" lon="9.853350021">
        <ele>42</ele>
        <time>2011-08-21T14:03:15</time>
      </trkpt>
      <trkpt lat="53.238645" lon="9.856223021">
        <ele>40</ele>
        <time>2011-08-21T14:03:27</time>
      </trkpt>
      <trkpt lat="53.238222" lon="9.858283021">
        <ele>37</ele>
        <time>2011-08-21T14:03:38</time>
      </trkpt>
      <trkpt lat="53.237887" lon="9.860643021">
        <ele>39</ele>
        <time>2011-08-21T14:03:50</time>
      </trkpt>
      <trkpt lat="53.238282" lon="9.863570021">
        <ele>37</ele>
        <time>2011-08-21T14:04:02</time>
      </trkpt>
      <trkpt lat="53.238863" lon="9.866458021">
        <ele>40</ele>
        <time>2011-08-21T14:04:14</time>
      </trkpt>
      <trkpt lat="53.23847" lon="9.870537021">
        <ele>41</ele>
        <time>2011-08-21T14:04:27</time>
      </trkpt>
      <trkpt lat="53.23789" lon="9.875828021">
        <ele>44</ele>
        <time>2011-08-21T14:04:38</time>
      </trkpt>
      <trkpt lat="53.23734" lon="9.880605021">
        <ele>46</ele>
        <time>2011-08-21T14:04:50</time>
      </trkpt>
      <trkpt lat="53.236808" lon="9.885375021">
        <ele>47</ele>
        <time>2011-08-21T14:05:02</time>
      </trkpt>
      <trkpt lat="53.236275" lon="9.890035021">
        <ele>48</ele>
        <time>2011-08-21T14:05:14</time>
      </trkpt>
      <trkpt lat="53.235622" lon="9.894310021">
        <ele>49</ele>
        <time>2011-08-21T14:05:27</time>
      </trkpt>
      <trkpt lat="53.235062" lon="9.897608021">
        <ele>50</ele>
        <time>2011-08-21T14:05:38</time>
      </trkpt>
      <trkpt lat="53.234518" lon="9.900747021">
        <ele>54</ele>
        <time>2011-08-21T14:05:50</time>
      </trkpt>
      <trkpt lat="53.233817" lon="9.904938021">
        <ele>51</ele>
        <time>2011-08-21T14:06:02</time>
      </trkpt>
      <trkpt lat="53.233123" lon="9.908063021">
        <ele>52</ele>
        <time>2011-08-21T14:06:13</time>
      </trkpt>
      <trkpt lat="53.232205" lon="9.910508021">
        <ele>53</ele>
        <time>2011-08-21T14:06:25</time>
      </trkpt>
      <trkpt lat="53.231375" lon="9.912733021">
        <ele>55</ele>
        <time>2011-08-21T14:06:37</time>
      </trkpt>
      <trkpt lat="53.230513" lon="9.915057021">
        <ele>57</ele>
        <time>2011-08-21T14:06:49</time>
      </trkpt>
      <trkpt lat="53.229447" lon="9.917527021">
        <ele>59</ele>
        <time>2011-08-21T14:07:02</time>
      </trkpt>
      <trkpt lat="53.228412" lon="9.919303021">
        <ele>61</ele>
        <time>2011-08-21T14:07:13</time>
      </trkpt>
      <trkpt lat="53.22715" lon="9.920317021">
        <ele>64</ele>
        <time>2011-08-21T14:07:24</time>
      </trkpt>
      <trkpt lat="53.226217" lon="9.922925021">
        <ele>68</ele>
        <time>2011-08-21T14:07:37</time>
      </trkpt>
      <trkpt lat="53.225028" lon="9.926188021">
        <ele>73</ele>
        <time>2011-08-21T14:07:49</time>
      </trkpt>
      <trkpt lat="53.22325" lon="9.931052021">
        <ele>80</ele>
        <time>2011-08-21T14:08:02</time>
      </trkpt>
      <trkpt lat="53.221792" lon="9.935025021">
        <ele>82</ele>
        <time>2011-08-21T14:08:13</time>
      </trkpt>
      <trkpt lat="53.220018" lon="9.938647021">
        <ele>83</ele>
        <time>2011-08-21T14:08:24</time>
      </trkpt>
      <trkpt lat="53.218213" lon="9.942177021">
        <ele>91</ele>
        <time>2011-08-21T14:08:36</time>
      </trkpt>
      <trkpt lat="53.216703" lon="9.945107021">
        <ele>99</ele>
        <time>2011-08-21T14:08:48</time>
      </trkpt>
      <trkpt lat="53.215642" lon="9.947073021">
        <ele>103</ele>
        <time>2011-08-21T14:09:00</time>
      </trkpt>
      <trkpt lat="53.213818" lon="9.949385021">
        <ele>109</ele>
        <time>2011-08-21T14:09:12</time>
      </trkpt>
      <trkpt lat="53.211583" lon="9.951992021">
        <ele>115</ele>
        <time>2011-08-21T14:09:24</time>
      </trkpt>
      <trkpt lat="53.209485" lon="9.954435021">
        <ele>121</ele>
        <time>2011-08-21T14:09:35</time>
      </trkpt>
      <trkpt lat="53.207233" lon="9.957100021">
        <ele>123</ele>
        <time>2011-08-21T14:09:47</time>
      </trkpt>
      <trkpt lat="53.205047" lon="9.959842021">
        <ele>118</ele>
        <time>2011-08-21T14:09:58</time>
      </trkpt>
      <trkpt lat="53.202637" lon="9.963208021">
        <ele>109</ele>
        <time>2011-08-21T14:10:10</time>
      </trkpt>
      <trkpt lat="53.20043" lon="9.966577021">
        <ele>94</ele>
        <time>2011-08-21T14:10:22</time>
      </trkpt>
      <trkpt lat="53.198655" lon="9.969903021">
        <ele>83</ele>
        <time>2011-08-21T14:10:33</time>
      </trkpt>
      <trkpt lat="53.197418" lon="9.972202021">
        <ele>83</ele>
        <time>2011-08-21T14:10:45</time>
      </trkpt>
      <trkpt lat="53.197152" lon="9.974073021">
        <ele>81</ele>
        <time>2011-08-21T14:10:57</time>
      </trkpt>
      <trkpt lat="53.197313" lon="9.975840021">
        <ele>76</ele>
        <time>2011-08-21T14:11:08</time>
      </trkpt>
      <trkpt lat="53.197643" lon="9.977500021">
        <ele>73</ele>
        <time>2011-08-21T14:11:20</time>
      </trkpt>
      <trkpt lat="53.197993" lon="9.978947021">
        <ele>72</ele>
        <time>2011-08-21T14:11:32</time>
      </trkpt>
      <trkpt lat="53.198318" lon="9.980310021">
        <ele>72</ele>
        <time>2011-08-21T14:11:43</time>
      </trkpt>
      <trkpt lat="53.198695" lon="9.981962021">
        <ele>74</ele>
        <time>2011-08-21T14:11:55</time>
      </trkpt>
      <trkpt lat="53.199125" lon="9.983852021">
        <ele>78</ele>
        <time>2011-08-21T14:12:07</time>
      </trkpt>
      <trkpt lat="53.199593" lon="9.985907021">
        <ele>80</ele>
        <time>2011-08-21T14:12:18</time>
      </trkpt>
      <trkpt lat="53.199877" lon="9.988277021">
        <ele>83</ele>
        <time>2011-08-21T14:12:30</time>
      </trkpt>
      <trkpt lat="53.19919" lon="9.991982021">
        <ele>86</ele>
        <time>2011-08-21T14:12:42</time>
      </trkpt>
      <trkpt lat="53.198295" lon="9.996485021">
        <ele>86</ele>
        <time>2011-08-21T14:12:54</time>
      </trkpt>
      <trkpt lat="53.19735" lon="10.001390021">
        <ele>82</ele>
        <time>2011-08-21T14:13:07</time>
      </trkpt>
      <trkpt lat="53.196532" lon="10.005500021">
        <ele>86</ele>
        <time>2011-08-21T14:13:18</time>
      </trkpt>
      <trkpt lat="53.195688" lon="10.009728021">
        <ele>87</ele>
        <time>2011-08-21T14:13:30</time>
      </trkpt>
      <trkpt lat="53.195263" lon="10.012373021">
        <ele>80</ele>
        <time>2011-08-21T14:13:41</time>
      </trkpt>
      <trkpt lat="53.196038" lon="10.015112021">
        <ele>71</ele>
        <time>2011-08-21T14:13:53</time>
      </trkpt>
      <trkpt lat="53.197342" lon="10.018298021">
        <ele>62</ele>
        <time>2011-08-21T14:14:05</time>
      </trkpt>
      <trkpt lat="53.198643" lon="10.021138021">
        <ele>56</ele>
        <time>2011-08-21T14:14:17</time>
      </trkpt>
      <trkpt lat="53.200405" lon="10.022325021">
        <ele>54</ele>
        <time>2011-08-21T14:14:29</time>
      </trkpt>
      <trkpt lat="53.201498" lon="10.024508021">
        <ele>47</ele>
        <time>2011-08-21T14:14:42</time>
      </trkpt>
      <trkpt lat="53.202063" lon="10.026955021">
        <ele>47</ele>
        <time>2011-08-21T14:14:53</time>
      </trkpt>
      <trkpt lat="53.20307" lon="10.028090021">
        <ele>51</ele>
        <time>2011-08-21T14:15:05</time>
      </trkpt>
      <trkpt lat="53.204145" lon="10.029067021">
        <ele>54</ele>
        <time>2011-08-21T14:15:17</time>
      </trkpt>
      <trkpt lat="53.204502" lon="10.029673021">
        <ele>55</ele>
        <time>2011-08-21T14:15:29</time>
      </trkpt>
      <trkpt lat="53.2052" lon="10.030887021">
        <ele>58</ele>
        <time>2011-08-21T14:15:42</time>
      </trkpt>
      <trkpt lat="53.205468" lon="10.031360021">
        <ele>60</ele>
        <time>2011-08-21T14:15:54</time>
      </trkpt>
      <trkpt lat="53.205643" lon="10.031750021">
        <ele>61</ele>
        <time>2011-08-21T14:16:05</time>
      </trkpt>
      <trkpt lat="53.206053" lon="10.032137021">
        <ele>62</ele>
        <time>2011-08-21T14:16:17</time>
      </trkpt>
      <trkpt lat="53.207652" lon="10.031927021">
        <ele>63</ele>
        <time>2011-08-21T14:16:28</time>
      </trkpt>
      <trkpt lat="53.209378" lon="10.031680021">
        <ele>67</ele>
        <time>2011-08-21T14:16:40</time>
      </trkpt>
      <trkpt lat="53.210892" lon="10.030740021">
        <ele>65</ele>
        <time>2011-08-21T14:16:52</time>
      </trkpt>
      <trkpt lat="53.211437" lon="10.030492021">
        <ele>65</ele>
        <time>2011-08-21T14:22:52</time>
      </trkpt>
      <trkpt lat="53.211438" lon="10.029018021">
        <ele>60</ele>
        <time>2011-08-21T14:23:03</time>
      </trkpt>
      <trkpt lat="53.212072" lon="10.026005021">
        <ele>49</ele>
        <time>2011-08-21T14:23:15</time>
      </trkpt>
      <trkpt lat="53.211958" lon="10.022468021">
        <ele>45</ele>
        <time>2011-08-21T14:23:27</time>
      </trkpt>
      <trkpt lat="53.211202" lon="10.019670021">
        <ele>52</ele>
        <time>2011-08-21T14:23:38</time>
      </trkpt>
      <trkpt lat="53.2111514326903" lon="10.018786997937">
        <ele>63.001</ele>
        <time>2011-08-21T18:19:03.939</time>
      </trkpt>
      <trkpt lat="53.212082" lon="10.018335021">
        <ele>57</ele>
        <time>2011-08-21T14:23:50</time>
      </trkpt>
      <trkpt lat="53.214947" lon="10.016920021">
        <ele>67</ele>
        <time>2011-08-21T14:24:02</time>
      </trkpt>
      <trkpt lat="53.217367" lon="10.013563021">
        <ele>65</ele>
        <time>2011-08-21T14:24:14</time>
      </trkpt>
      <trkpt lat="53.219587" lon="10.010858021">
        <ele>58</ele>
        <time>2011-08-21T14:24:27</time>
      </trkpt>
      <trkpt lat="53.221975" lon="10.009738021">
        <ele>57</ele>
        <time>2011-08-21T14:24:52</time>
      </trkpt>
      <trkpt lat="53.22393" lon="10.007998021">
        <ele>60</ele>
        <time>2011-08-21T14:25:03</time>
      </trkpt>
      <trkpt lat="53.226702" lon="10.005538021">
        <ele>65</ele>
        <time>2011-08-21T14:25:15</time>
      </trkpt>
      <trkpt lat="53.229492" lon="10.003028021">
        <ele>65</ele>
        <time>2011-08-21T14:25:27</time>
      </trkpt>
      <trkpt lat="53.231795" lon="10.000988021">
        <ele>73</ele>
        <time>2011-08-21T14:25:38</time>
      </trkpt>
      <trkpt lat="53.234237" lon="9.999433021">
        <ele>76</ele>
        <time>2011-08-21T14:25:50</time>
      </trkpt>
      <trkpt lat="53.237255" lon="10.000658021">
        <ele>55</ele>
        <time>2011-08-21T14:26:02</time>
      </trkpt>
      <trkpt lat="53.240195" lon="10.002762021">
        <ele>45</ele>
        <time>2011-08-21T14:26:14</time>
      </trkpt>
      <trkpt lat="53.243302" lon="10.004928021">
        <ele>47</ele>
        <time>2011-08-21T14:26:32</time>
      </trkpt>
      <trkpt lat="53.2439" lon="10.005420021">
        <ele>51</ele>
        <time>2011-08-21T14:26:44</time>
      </trkpt>
      <trkpt lat="53.243993" lon="10.005512021">
        <ele>50</ele>
        <time>2011-08-21T14:27:00</time>
      </trkpt>
      <trkpt lat="53.245765" lon="10.006705021">
        <ele>53</ele>
        <time>2011-08-21T14:27:12</time>
      </trkpt>
      <trkpt lat="53.247988" lon="10.008212021">
        <ele>50</ele>
        <time>2011-08-21T14:27:24</time>
      </trkpt>
      <trkpt lat="53.249832" lon="10.009473021">
        <ele>45</ele>
        <time>2011-08-21T14:27:37</time>
      </trkpt>
      <trkpt lat="53.251232" lon="10.010417021">
        <ele>42</ele>
        <time>2011-08-21T14:27:49</time>
      </trkpt>
      <trkpt lat="53.252445" lon="10.011238021">
        <ele>40</ele>
        <time>2011-08-21T14:28:00</time>
      </trkpt>
      <trkpt lat="53.253293" lon="10.011815021">
        <ele>38</ele>
        <time>2011-08-21T14:28:12</time>
      </trkpt>
      <trkpt lat="53.254037" lon="10.012318021">
        <ele>37</ele>
        <time>2011-08-21T14:28:24</time>
      </trkpt>
      <trkpt lat="53.255243" lon="10.013148021">
        <ele>36</ele>
        <time>2011-08-21T14:28:37</time>
      </trkpt>
      <trkpt lat="53.256312" lon="10.013155021">
        <ele>37</ele>
        <time>2011-08-21T14:28:48</time>
      </trkpt>
      <trkpt lat="53.2573311859823" lon="10.0127744639091">
        <ele>32</ele>
        <time>2011-08-21T14:29:00</time>
      </trkpt>
      <trkpt lat="53.2586262129855" lon="10.0125299375411">
        <ele>42.001</ele>
        <time>2011-08-21T18:22:00.687</time>
      </trkpt>
      <trkpt lat="53.25876" lon="10.011383021">
        <ele>38</ele>
        <time>2011-08-21T14:30:09</time>
      </trkpt>
      <trkpt lat="53.258907" lon="10.008778021">
        <ele>43</ele>
        <time>2011-08-21T14:30:22</time>
      </trkpt>
      <trkpt lat="53.259053" lon="10.006318021">
        <ele>46</ele>
        <time>2011-08-21T14:30:33</time>
      </trkpt>
      <trkpt lat="53.259225" lon="10.003303021">
        <ele>43</ele>
        <time>2011-08-21T14:30:45</time>
      </trkpt>
      <trkpt lat="53.259585" lon="9.998570021">
        <ele>48</ele>
        <time>2011-08-21T14:30:57</time>
      </trkpt>
      <trkpt lat="53.261208" lon="9.994217021">
        <ele>55</ele>
        <time>2011-08-21T14:31:09</time>
      </trkpt>
      <trkpt lat="53.263608" lon="9.988973021">
        <ele>66</ele>
        <time>2011-08-21T14:31:22</time>
      </trkpt>
      <trkpt lat="53.265342" lon="9.985158021">
        <ele>64</ele>
        <time>2011-08-21T14:31:33</time>
      </trkpt>
      <trkpt lat="53.266927" lon="9.982702021">
        <ele>52</ele>
        <time>2011-08-21T14:31:45</time>
      </trkpt>
      <trkpt lat="53.2678487771693" lon="9.98200791582521">
        <ele>53.001</ele>
        <time>2011-08-21T18:22:23.387</time>
      </trkpt>
      <trkpt lat="53.268088" lon="9.979740021">
        <ele>45</ele>
        <time>2011-08-21T14:32:07</time>
      </trkpt>
      <trkpt lat="53.267137" lon="9.975625021">
        <ele>45</ele>
        <time>2011-08-21T14:32:25</time>
      </trkpt>
      <trkpt lat="53.267062" lon="9.970862021">
        <ele>60</ele>
        <time>2011-08-21T14:32:37</time>
      </trkpt>
      <trkpt lat="53.267048" lon="9.966400021">
        <ele>73</ele>
        <time>2011-08-21T14:32:48</time>
      </trkpt>
      <trkpt lat="53.26747" lon="9.961793021">
        <ele>87</ele>
        <time>2011-08-21T14:33:00</time>
      </trkpt>
      <trkpt lat="53.269048" lon="9.957185021">
        <ele>85</ele>
        <time>2011-08-21T14:33:12</time>
      </trkpt>
      <trkpt lat="53.270097" lon="9.952453021">
        <ele>79</ele>
        <time>2011-08-21T14:33:24</time>
      </trkpt>
      <trkpt lat="53.270873" lon="9.947532021">
        <ele>69</ele>
        <time>2011-08-21T14:33:37</time>
      </trkpt>
      <trkpt lat="53.271028" lon="9.943023021">
        <ele>64</ele>
        <time>2011-08-21T14:33:48</time>
      </trkpt>
      <trkpt lat="53.271082" lon="9.938592021">
        <ele>63</ele>
        <time>2011-08-21T14:33:59</time>
      </trkpt>
      <trkpt lat="53.271198" lon="9.933572021">
        <ele>60</ele>
        <time>2011-08-21T14:34:11</time>
      </trkpt>
      <trkpt lat="53.271557" lon="9.929368021">
        <ele>54</ele>
        <time>2011-08-21T14:34:22</time>
      </trkpt>
      <trkpt lat="53.271992" lon="9.925063021">
        <ele>50</ele>
        <time>2011-08-21T14:34:33</time>
      </trkpt>
      <trkpt lat="53.272297" lon="9.920740021">
        <ele>52</ele>
        <time>2011-08-21T14:34:45</time>
      </trkpt>
      <trkpt lat="53.272077" lon="9.918030021">
        <ele>54</ele>
        <time>2011-08-21T14:34:57</time>
      </trkpt>
      <trkpt lat="53.271898" lon="9.915712021">
        <ele>54</ele>
        <time>2011-08-21T14:35:08</time>
      </trkpt>
      <trkpt lat="53.271232" lon="9.913503021">
        <ele>52</ele>
        <time>2011-08-21T14:35:20</time>
      </trkpt>
      <trkpt lat="53.270427" lon="9.911200021">
        <ele>51</ele>
        <time>2011-08-21T14:35:32</time>
      </trkpt>
      <trkpt lat="53.269607" lon="9.908863021">
        <ele>51</ele>
        <time>2011-08-21T14:35:44</time>
      </trkpt>
      <trkpt lat="53.268675" lon="9.906123021">
        <ele>52</ele>
        <time>2011-08-21T14:35:57</time>
      </trkpt>
      <trkpt lat="53.267982" lon="9.903427021">
        <ele>53</ele>
        <time>2011-08-21T14:36:08</time>
      </trkpt>
      <trkpt lat="53.267098" lon="9.900043021">
        <ele>53</ele>
        <time>2011-08-21T14:36:20</time>
      </trkpt>
      <trkpt lat="53.265782" lon="9.894908021">
        <ele>45</ele>
        <time>2011-08-21T14:36:32</time>
      </trkpt>
      <trkpt lat="53.26535" lon="9.890228021">
        <ele>37</ele>
        <time>2011-08-21T14:36:44</time>
      </trkpt>
      <trkpt lat="53.264825" lon="9.887487021">
        <ele>33</ele>
        <time>2011-08-21T14:36:56</time>
      </trkpt>
      <trkpt lat="53.264948" lon="9.884938021">
        <ele>35</ele>
        <time>2011-08-21T14:37:07</time>
      </trkpt>
      <trkpt lat="53.265673" lon="9.882443021">
        <ele>32</ele>
        <time>2011-08-21T14:37:19</time>
      </trkpt>
      <trkpt lat="53.26684" lon="9.879607021">
        <ele>31</ele>
        <time>2011-08-21T14:37:32</time>
      </trkpt>
      <trkpt lat="53.268022" lon="9.878332021">
        <ele>28</ele>
        <time>2011-08-21T14:37:43</time>
      </trkpt>
      <trkpt lat="53.267663" lon="9.876848021">
        <ele>29</ele>
        <time>2011-08-21T14:37:55</time>
      </trkpt>
      <trkpt lat="53.268053" lon="9.873210021">
        <ele>27</ele>
        <time>2011-08-21T14:38:07</time>
      </trkpt>
      <trkpt lat="53.269042" lon="9.865898021">
        <ele>44</ele>
        <time>2011-08-21T14:38:31</time>
      </trkpt>
      <trkpt lat="53.269177" lon="9.863623021">
        <ele>47</ele>
        <time>2011-08-21T14:38:42</time>
      </trkpt>
      <trkpt lat="53.26917" lon="9.861113021">
        <ele>46</ele>
        <time>2011-08-21T14:38:55</time>
      </trkpt>
      <trkpt lat="53.26918" lon="9.858705021">
        <ele>46</ele>
        <time>2011-08-21T14:39:07</time>
      </trkpt>
      <trkpt lat="53.269177" lon="9.857000021">
        <ele>47</ele>
        <time>2011-08-21T14:39:19</time>
      </trkpt>
      <trkpt lat="53.268888" lon="9.856125021">
        <ele>49</ele>
        <time>2011-08-21T14:39:31</time>
      </trkpt>
      <trkpt lat="53.267867" lon="9.854773021">
        <ele>51</ele>
        <time>2011-08-21T14:39:42</time>
      </trkpt>
      <trkpt lat="53.266448" lon="9.852932021">
        <ele>53</ele>
        <time>2011-08-21T14:39:54</time>
      </trkpt>
      <trkpt lat="53.265075" lon="9.851118021">
        <ele>54</ele>
        <time>2011-08-21T14:40:07</time>
      </trkpt>
      <trkpt lat="53.263785" lon="9.849382021">
        <ele>57</ele>
        <time>2011-08-21T14:40:18</time>
      </trkpt>
      <trkpt lat="53.26228" lon="9.847548021">
        <ele>56</ele>
        <time>2011-08-21T14:40:30</time>
      </trkpt>
      <trkpt lat="53.261233" lon="9.846350021">
        <ele>58</ele>
        <time>2011-08-21T14:40:42</time>
      </trkpt>
      <trkpt lat="53.260225" lon="9.845228021">
        <ele>53</ele>
        <time>2011-08-21T14:40:53</time>
      </trkpt>
      <trkpt lat="53.257772" lon="9.843095021">
        <ele>45</ele>
        <time>2011-08-21T14:41:14</time>
      </trkpt>
      <trkpt lat="53.25638" lon="9.842097021">
        <ele>42</ele>
        <time>2011-08-21T14:41:27</time>
      </trkpt>
      <trkpt lat="53.255277" lon="9.841247021">
        <ele>43</ele>
        <time>2011-08-21T14:41:39</time>
      </trkpt>
      <trkpt lat="53.254203" lon="9.840462021">
        <ele>48</ele>
        <time>2011-08-21T14:41:50</time>
      </trkpt>
      <trkpt lat="53.253043" lon="9.839668021">
        <ele>49</ele>
        <time>2011-08-21T14:42:02</time>
      </trkpt>
      <trkpt lat="53.251767" lon="9.838798021">
        <ele>48</ele>
        <time>2011-08-21T14:42:14</time>
      </trkpt>
      <trkpt lat="53.250498" lon="9.837922021">
        <ele>48</ele>
        <time>2011-08-21T14:42:27</time>
      </trkpt>
      <trkpt lat="53.249317" lon="9.837057021">
        <ele>48</ele>
        <time>2011-08-21T14:42:38</time>
      </trkpt>
      <trkpt lat="53.24794" lon="9.836053021">
        <ele>53</ele>
        <time>2011-08-21T14:42:51</time>
      </trkpt>
      <trkpt lat="53.24704" lon="9.835357021">
        <ele>56</ele>
        <time>2011-08-21T14:43:04</time>
      </trkpt>
      <trkpt lat="53.246313" lon="9.834430021">
        <ele>60</ele>
        <time>2011-08-21T14:43:17</time>
      </trkpt>
      <trkpt lat="53.246248" lon="9.832295021">
        <ele>64</ele>
        <time>2011-08-21T14:43:28</time>
      </trkpt>
      <trkpt lat="53.245747" lon="9.828592021">
        <ele>67</ele>
        <time>2011-08-21T14:43:40</time>
      </trkpt>
      <trkpt lat="53.246588" lon="9.825272021">
        <ele>66</ele>
        <time>2011-08-21T14:43:52</time>
      </trkpt>
      <trkpt lat="53.248115" lon="9.820635021">
        <ele>54</ele>
        <time>2011-08-21T14:44:04</time>
      </trkpt>
      <trkpt lat="53.249562" lon="9.816252021">
        <ele>55</ele>
        <time>2011-08-21T14:44:16</time>
      </trkpt>
      <trkpt lat="53.251255" lon="9.812908021">
        <ele>57</ele>
        <time>2011-08-21T14:44:27</time>
      </trkpt>
      <trkpt lat="53.252673" lon="9.810192021">
        <ele>43</ele>
        <time>2011-08-21T14:44:39</time>
      </trkpt>
      <trkpt lat="53.253557" lon="9.808912021">
        <ele>41</ele>
        <time>2011-08-21T14:44:52</time>
      </trkpt>
      <trkpt lat="53.253887" lon="9.807355021">
        <ele>41</ele>
        <time>2011-08-21T14:45:03</time>
      </trkpt>
      <trkpt lat="53.256245" lon="9.806433021">
        <ele>44</ele>
        <time>2011-08-21T14:45:15</time>
      </trkpt>
      <trkpt lat="53.259158" lon="9.805267021">
        <ele>45</ele>
        <time>2011-08-21T14:45:27</time>
      </trkpt>
      <trkpt lat="53.260868" lon="9.804550021">
        <ele>46</ele>
        <time>2011-08-21T14:45:38</time>
      </trkpt>
      <trkpt lat="53.26259" lon="9.803853021">
        <ele>51</ele>
        <time>2011-08-21T14:45:50</time>
      </trkpt>
      <trkpt lat="53.264467" lon="9.803085021">
        <ele>45</ele>
        <time>2011-08-21T14:46:02</time>
      </trkpt>
      <trkpt lat="53.267375" lon="9.801912021">
        <ele>47</ele>
        <time>2011-08-21T14:46:14</time>
      </trkpt>
      <trkpt lat="53.271633" lon="9.800117021">
        <ele>54</ele>
        <time>2011-08-21T14:46:25</time>
      </trkpt>
      <trkpt lat="53.275747" lon="9.798428021">
        <ele>56</ele>
        <time>2011-08-21T14:46:37</time>
      </trkpt>
      <trkpt lat="53.279842" lon="9.796730021">
        <ele>53</ele>
        <time>2011-08-21T14:46:49</time>
      </trkpt>
      <trkpt lat="53.283027" lon="9.795455021">
        <ele>48</ele>
        <time>2011-08-21T14:47:01</time>
      </trkpt>
      <trkpt lat="53.285618" lon="9.794437021">
        <ele>49</ele>
        <time>2011-08-21T14:47:12</time>
      </trkpt>
      <trkpt lat="53.287762" lon="9.793573021">
        <ele>43</ele>
        <time>2011-08-21T14:47:24</time>
      </trkpt>
      <trkpt lat="53.290033" lon="9.792825021">
        <ele>40</ele>
        <time>2011-08-21T14:47:37</time>
      </trkpt>
      <trkpt lat="53.292042" lon="9.793438021">
        <ele>42</ele>
        <time>2011-08-21T14:47:48</time>
      </trkpt>
      <trkpt lat="53.295365" lon="9.795222021">
        <ele>47</ele>
        <time>2011-08-21T14:48:00</time>
      </trkpt>
      <trkpt lat="53.299363" lon="9.797377021">
        <ele>52</ele>
        <time>2011-08-21T14:48:12</time>
      </trkpt>
      <trkpt lat="53.302887" lon="9.799345021">
        <ele>60</ele>
        <time>2011-08-21T14:48:25</time>
      </trkpt>
      <trkpt lat="53.305208" lon="9.800553021">
        <ele>56</ele>
        <time>2011-08-21T14:48:37</time>
      </trkpt>
      <trkpt lat="53.306813" lon="9.801408021">
        <ele>52</ele>
        <time>2011-08-21T14:48:49</time>
      </trkpt>
      <trkpt lat="53.308033" lon="9.802055021">
        <ele>52</ele>
        <time>2011-08-21T14:49:00</time>
      </trkpt>
      <trkpt lat="53.309147" lon="9.802703021">
        <ele>51</ele>
        <time>2011-08-21T14:49:12</time>
      </trkpt>
      <trkpt lat="53.309817" lon="9.803110021">
        <ele>48</ele>
        <time>2011-08-21T14:49:24</time>
      </trkpt>
      <trkpt lat="53.311605" lon="9.804052021">
        <ele>50</ele>
        <time>2011-08-21T14:49:36</time>
      </trkpt>
      <trkpt lat="53.31339" lon="9.805002021">
        <ele>58</ele>
        <time>2011-08-21T14:49:47</time>
      </trkpt>
      <trkpt lat="53.316712" lon="9.806758021">
        <ele>65</ele>
        <time>2011-08-21T14:50:00</time>
      </trkpt>
      <trkpt lat="53.320007" lon="9.808563021">
        <ele>74</ele>
        <time>2011-08-21T14:50:12</time>
      </trkpt>
      <trkpt lat="53.322663" lon="9.810002021">
        <ele>74</ele>
        <time>2011-08-21T14:50:25</time>
      </trkpt>
      <trkpt lat="53.324412" lon="9.810898021">
        <ele>77</ele>
        <time>2011-08-21T14:50:37</time>
      </trkpt>
      <trkpt lat="53.325277" lon="9.811363021">
        <ele>76</ele>
        <time>2011-08-21T14:50:49</time>
      </trkpt>
      <trkpt lat="53.325368" lon="9.811407021">
        <ele>73</ele>
        <time>2011-08-21T14:51:15</time>
      </trkpt>
      <trkpt lat="53.326453" lon="9.811978021">
        <ele>77</ele>
        <time>2011-08-21T14:51:27</time>
      </trkpt>
      <trkpt lat="53.327782" lon="9.812688021">
        <ele>81</ele>
        <time>2011-08-21T14:51:39</time>
      </trkpt>
      <trkpt lat="53.328983" lon="9.813227021">
        <ele>81</ele>
        <time>2011-08-21T14:51:51</time>
      </trkpt>
      <trkpt lat="53.330663" lon="9.813115021">
        <ele>77</ele>
        <time>2011-08-21T14:52:02</time>
      </trkpt>
      <trkpt lat="53.332668" lon="9.812712021">
        <ele>72</ele>
        <time>2011-08-21T14:52:14</time>
      </trkpt>
      <trkpt lat="53.334973" lon="9.812270021">
        <ele>64</ele>
        <time>2011-08-21T14:52:27</time>
      </trkpt>
      <trkpt lat="53.336838" lon="9.811880021">
        <ele>59</ele>
        <time>2011-08-21T14:52:38</time>
      </trkpt>
      <trkpt lat="53.339775" lon="9.811278021">
        <ele>68</ele>
        <time>2011-08-21T14:52:50</time>
      </trkpt>
      <trkpt lat="53.342518" lon="9.810660021">
        <ele>71</ele>
        <time>2011-08-21T14:53:02</time>
      </trkpt>
      <trkpt lat="53.3444" lon="9.810322021">
        <ele>62</ele>
        <time>2011-08-21T14:53:14</time>
      </trkpt>
      <trkpt lat="53.346383" lon="9.809942021">
        <ele>65</ele>
        <time>2011-08-21T14:53:27</time>
      </trkpt>
      <trkpt lat="53.348" lon="9.809543021">
        <ele>66</ele>
        <time>2011-08-21T14:53:38</time>
      </trkpt>
      <trkpt lat="53.35007" lon="9.809117021">
        <ele>69</ele>
        <time>2011-08-21T14:53:50</time>
      </trkpt>
      <trkpt lat="53.352532" lon="9.808695021">
        <ele>59</ele>
        <time>2011-08-21T14:54:02</time>
      </trkpt>
      <trkpt lat="53.35466" lon="9.808223021">
        <ele>72</ele>
        <time>2011-08-21T14:54:14</time>
      </trkpt>
      <trkpt lat="53.356533" lon="9.807818021">
        <ele>74</ele>
        <time>2011-08-21T14:54:27</time>
      </trkpt>
      <trkpt lat="53.35815" lon="9.807408021">
        <ele>78</ele>
        <time>2011-08-21T14:54:39</time>
      </trkpt>
      <trkpt lat="53.36156" lon="9.806742021">
        <ele>82</ele>
        <time>2011-08-21T14:54:52</time>
      </trkpt>
      <trkpt lat="53.36442" lon="9.806175021">
        <ele>85</ele>
        <time>2011-08-21T14:55:04</time>
      </trkpt>
      <trkpt lat="53.367005" lon="9.805597021">
        <ele>85</ele>
        <time>2011-08-21T14:55:15</time>
      </trkpt>
      <trkpt lat="53.36934" lon="9.805122021">
        <ele>84</ele>
        <time>2011-08-21T14:55:27</time>
      </trkpt>
      <trkpt lat="53.369667" lon="9.805065021">
        <ele>81</ele>
        <time>2011-08-21T14:55:39</time>
      </trkpt>
      <trkpt lat="53.36964" lon="9.805035021">
        <ele>89</ele>
        <time>2011-08-21T14:56:34</time>
      </trkpt>
      <trkpt lat="53.370857" lon="9.804773021">
        <ele>88</ele>
        <time>2011-08-21T14:56:45</time>
      </trkpt>
      <trkpt lat="53.372762" lon="9.804420021">
        <ele>86</ele>
        <time>2011-08-21T14:56:57</time>
      </trkpt>
      <trkpt lat="53.374482" lon="9.804033021">
        <ele>83</ele>
        <time>2011-08-21T14:57:09</time>
      </trkpt>
      <trkpt lat="53.376033" lon="9.803707021">
        <ele>81</ele>
        <time>2011-08-21T14:57:22</time>
      </trkpt>
      <trkpt lat="53.377502" lon="9.803430021">
        <ele>78</ele>
        <time>2011-08-21T14:57:33</time>
      </trkpt>
      <trkpt lat="53.37926" lon="9.802893021">
        <ele>77</ele>
        <time>2011-08-21T14:57:45</time>
      </trkpt>
      <trkpt lat="53.381622" lon="9.800823021">
        <ele>71</ele>
        <time>2011-08-21T14:57:57</time>
      </trkpt>
      <trkpt lat="53.383297" lon="9.799195021">
        <ele>62</ele>
        <time>2011-08-21T14:58:09</time>
      </trkpt>
      <trkpt lat="53.384952" lon="9.797565021">
        <ele>59</ele>
        <time>2011-08-21T14:58:22</time>
      </trkpt>
      <trkpt lat="53.386635" lon="9.796348021">
        <ele>65</ele>
        <time>2011-08-21T14:58:34</time>
      </trkpt>
      <trkpt lat="53.387572" lon="9.796077021">
        <ele>65</ele>
        <time>2011-08-21T14:58:45</time>
      </trkpt>
      <trkpt lat="53.387498" lon="9.796077021">
        <ele>63</ele>
        <time>2011-08-21T15:02:08</time>
      </trkpt>
      <trkpt lat="53.389365" lon="9.795343021">
        <ele>69</ele>
        <time>2011-08-21T15:02:20</time>
      </trkpt>
      <trkpt lat="53.391185" lon="9.794307021">
        <ele>67</ele>
        <time>2011-08-21T15:02:32</time>
      </trkpt>
      <trkpt lat="53.392787" lon="9.793340021">
        <ele>59</ele>
        <time>2011-08-21T15:02:44</time>
      </trkpt>
      <trkpt lat="53.394458" lon="9.792328021">
        <ele>49</ele>
        <time>2011-08-21T15:02:55</time>
      </trkpt>
      <trkpt lat="53.39667" lon="9.790967021">
        <ele>45</ele>
        <time>2011-08-21T15:03:07</time>
      </trkpt>
      <trkpt lat="53.400033" lon="9.788987021">
        <ele>34</ele>
        <time>2011-08-21T15:03:19</time>
      </trkpt>
      <trkpt lat="53.402343" lon="9.788665021">
        <ele>41</ele>
        <time>2011-08-21T15:03:32</time>
      </trkpt>
      <trkpt lat="53.404057" lon="9.788788021">
        <ele>44</ele>
        <time>2011-08-21T15:03:44</time>
      </trkpt>
      <trkpt lat="53.405485" lon="9.788863021">
        <ele>42</ele>
        <time>2011-08-21T15:03:56</time>
      </trkpt>
      <trkpt lat="53.405847" lon="9.788903021">
        <ele>41</ele>
        <time>2011-08-21T15:04:08</time>
      </trkpt>
      <trkpt lat="53.405925" lon="9.788875021">
        <ele>36</ele>
        <time>2011-08-21T15:04:42</time>
      </trkpt>
      <trkpt lat="53.40815" lon="9.789002021">
        <ele>35</ele>
        <time>2011-08-21T15:04:54</time>
      </trkpt>
      <trkpt lat="53.411252" lon="9.789102021">
        <ele>39</ele>
        <time>2011-08-21T15:05:06</time>
      </trkpt>
      <trkpt lat="53.415067" lon="9.789338021">
        <ele>38</ele>
        <time>2011-08-21T15:05:17</time>
      </trkpt>
      <trkpt lat="53.418372" lon="9.789492021">
        <ele>40</ele>
        <time>2011-08-21T15:05:28</time>
      </trkpt>
      <trkpt lat="53.421103" lon="9.789627021">
        <ele>41</ele>
        <time>2011-08-21T15:05:40</time>
      </trkpt>
      <trkpt lat="53.423043" lon="9.789733021">
        <ele>43</ele>
        <time>2011-08-21T15:05:52</time>
      </trkpt>
      <trkpt lat="53.424488" lon="9.789400021">
        <ele>45</ele>
        <time>2011-08-21T15:06:04</time>
      </trkpt>
      <trkpt lat="53.42494" lon="9.788615021">
        <ele>43</ele>
        <time>2011-08-21T15:06:17</time>
      </trkpt>
      <trkpt lat="53.424975" lon="9.788508021">
        <ele>41</ele>
        <time>2011-08-21T15:06:34</time>
      </trkpt>
      <trkpt lat="53.425655" lon="9.786448021">
        <ele>47</ele>
        <time>2011-08-21T15:06:45</time>
      </trkpt>
      <trkpt lat="53.426835" lon="9.784333021">
        <ele>47</ele>
        <time>2011-08-21T15:06:57</time>
      </trkpt>
      <trkpt lat="53.428505" lon="9.781902021">
        <ele>47</ele>
        <time>2011-08-21T15:07:09</time>
      </trkpt>
      <trkpt lat="53.430995" lon="9.778265021">
        <ele>50</ele>
        <time>2011-08-21T15:07:22</time>
      </trkpt>
      <trkpt lat="53.433397" lon="9.774770021">
        <ele>51</ele>
        <time>2011-08-21T15:07:33</time>
      </trkpt>
      <trkpt lat="53.436048" lon="9.770892021">
        <ele>49</ele>
        <time>2011-08-21T15:07:45</time>
      </trkpt>
      <trkpt lat="53.438603" lon="9.767162021">
        <ele>46</ele>
        <time>2011-08-21T15:07:57</time>
      </trkpt>
      <trkpt lat="53.440638" lon="9.764215021">
        <ele>47</ele>
        <time>2011-08-21T15:08:09</time>
      </trkpt>
      <trkpt lat="53.44269" lon="9.761220021">
        <ele>39</ele>
        <time>2011-08-21T15:08:22</time>
      </trkpt>
      <trkpt lat="53.44418" lon="9.759025021">
        <ele>32</ele>
        <time>2011-08-21T15:08:33</time>
      </trkpt>
      <trkpt lat="53.445782" lon="9.757360021">
        <ele>23</ele>
        <time>2011-08-21T15:08:45</time>
      </trkpt>
      <trkpt lat="53.447305" lon="9.757060021">
        <ele>18</ele>
        <time>2011-08-21T15:08:57</time>
      </trkpt>
      <trkpt lat="53.448902" lon="9.756387021">
        <ele>15</ele>
        <time>2011-08-21T15:09:09</time>
      </trkpt>
      <trkpt lat="53.449468" lon="9.754195021">
        <ele>16</ele>
        <time>2011-08-21T15:09:22</time>
      </trkpt>
      <trkpt lat="53.449672" lon="9.753347021">
        <ele>17</ele>
        <time>2011-08-21T15:09:34</time>
      </trkpt>
      <trkpt lat="53.44986" lon="9.752605021">
        <ele>15</ele>
        <time>2011-08-21T15:09:47</time>
      </trkpt>
      <trkpt lat="53.449847" lon="9.752582021">
        <ele>5</ele>
        <time>2011-08-21T15:10:52</time>
      </trkpt>
      <trkpt lat="53.450073" lon="9.751773021">
        <ele>11</ele>
        <time>2011-08-21T15:11:03</time>
      </trkpt>
      <trkpt lat="53.450415" lon="9.750305021">
        <ele>9</ele>
        <time>2011-08-21T15:11:15</time>
      </trkpt>
      <trkpt lat="53.450882" lon="9.748415021">
        <ele>9</ele>
        <time>2011-08-21T15:11:27</time>
      </trkpt>
      <trkpt lat="53.451355" lon="9.746450021">
        <ele>9</ele>
        <time>2011-08-21T15:11:38</time>
      </trkpt>
      <trkpt lat="53.451952" lon="9.743983021">
        <ele>9</ele>
        <time>2011-08-21T15:11:50</time>
      </trkpt>
      <trkpt lat="53.452457" lon="9.741888021">
        <ele>8</ele>
        <time>2011-08-21T15:12:02</time>
      </trkpt>
      <trkpt lat="53.452633" lon="9.741185021">
        <ele>8</ele>
        <time>2011-08-21T15:12:13</time>
      </trkpt>
      <trkpt lat="53.452685" lon="9.740978021">
        <ele>6</ele>
        <time>2011-08-21T15:12:25</time>
      </trkpt>
      <trkpt lat="53.452935" lon="9.739933021">
        <ele>7</ele>
        <time>2011-08-21T15:12:37</time>
      </trkpt>
      <trkpt lat="53.453485" lon="9.737605021">
        <ele>5</ele>
        <time>2011-08-21T15:12:49</time>
      </trkpt>
      <trkpt lat="53.454067" lon="9.734978021">
        <ele>7</ele>
        <time>2011-08-21T15:13:01</time>
      </trkpt>
      <trkpt lat="53.454258" lon="9.733438021">
        <ele>8</ele>
        <time>2011-08-21T15:13:12</time>
      </trkpt>
      <trkpt lat="53.454323" lon="9.732588021">
        <ele>7</ele>
        <time>2011-08-21T15:13:25</time>
      </trkpt>
      <trkpt lat="53.454572" lon="9.730120021">
        <ele>6</ele>
        <time>2011-08-21T15:13:37</time>
      </trkpt>
      <trkpt lat="53.45534" lon="9.727472021">
        <ele>13</ele>
        <time>2011-08-21T15:13:49</time>
      </trkpt>
      <trkpt lat="53.456667" lon="9.724917021">
        <ele>17</ele>
        <time>2011-08-21T15:14:02</time>
      </trkpt>
      <trkpt lat="53.457937" lon="9.722450021">
        <ele>17</ele>
        <time>2011-08-21T15:14:13</time>
      </trkpt>
      <trkpt lat="53.459228" lon="9.719483021">
        <ele>16</ele>
        <time>2011-08-21T15:14:25</time>
      </trkpt>
      <trkpt lat="53.460538" lon="9.715803021">
        <ele>18</ele>
        <time>2011-08-21T15:14:37</time>
      </trkpt>
      <trkpt lat="53.461397" lon="9.712252021">
        <ele>19</ele>
        <time>2011-08-21T15:14:48</time>
      </trkpt>
      <trkpt lat="53.46141" lon="9.708522021">
        <ele>20</ele>
        <time>2011-08-21T15:15:00</time>
      </trkpt>
      <trkpt lat="53.460768" lon="9.704828021">
        <ele>17</ele>
        <time>2011-08-21T15:15:12</time>
      </trkpt>
      <trkpt lat="53.460448" lon="9.701028021">
        <ele>12</ele>
        <time>2011-08-21T15:15:24</time>
      </trkpt>
      <trkpt lat="53.460772" lon="9.696908021">
        <ele>10</ele>
        <time>2011-08-21T15:15:37</time>
      </trkpt>
      <trkpt lat="53.461478" lon="9.693622021">
        <ele>4</ele>
        <time>2011-08-21T15:15:48</time>
      </trkpt>
      <trkpt lat="53.462498" lon="9.690362021">
        <ele>0</ele>
        <time>2011-08-21T15:16:00</time>
      </trkpt>
      <trkpt lat="53.46343" lon="9.687313021">
        <ele>1</ele>
        <time>2011-08-21T15:16:12</time>
      </trkpt>
      <trkpt lat="53.46425" lon="9.684502021">
        <ele>4</ele>
        <time>2011-08-21T15:16:23</time>
      </trkpt>
      <trkpt lat="53.464893" lon="9.682743021">
        <ele>12</ele>
        <time>2011-08-21T15:16:35</time>
      </trkpt>
      <trkpt lat="53.465117" lon="9.682325021">
        <ele>13</ele>
        <time>2011-08-21T15:16:47</time>
      </trkpt>
      <trkpt lat="53.465748" lon="9.680685021">
        <ele>18</ele>
        <time>2011-08-21T15:16:59</time>
      </trkpt>
      <trkpt lat="53.46538" lon="9.680085021">
        <ele>19</ele>
        <time>2011-08-21T15:17:12</time>
      </trkpt>
      <trkpt lat="53.464807" lon="9.679777021">
        <ele>25</ele>
        <time>2011-08-21T15:17:22</time>
      </trkpt>
      <trkpt lat="53.463752" lon="9.680317021">
        <ele>23</ele>
        <time>2011-08-21T15:17:34</time>
      </trkpt>
      <trkpt lat="53.462583" lon="9.678455021">
        <ele>25</ele>
        <time>2011-08-21T15:17:47</time>
      </trkpt>
      <trkpt lat="53.461167" lon="9.676945021">
        <ele>33</ele>
        <time>2011-08-21T15:17:59</time>
      </trkpt>
      <trkpt lat="53.460145" lon="9.674615021">
        <ele>36</ele>
        <time>2011-08-21T15:18:12</time>
      </trkpt>
      <trkpt lat="53.459627" lon="9.672465021">
        <ele>39</ele>
        <time>2011-08-21T15:18:24</time>
      </trkpt>
    </trkseg>
  </trk>
</gpx>